<?xml version="1.0" encoding="UTF-8" standalone="no" ?>
<gpx xmlns="http://www.topografix.com/GPX/1/1" xmlns:xsi="http://www.w3.org/2001/XMLSchema-instance" xsi:schemaLocation="http://www.topografix.com/GPX/1/1 http://www.topografix.com/GPX/1/1/gpx.xsd" version="1.1" creator="VisuGPX - https://www.visugpx.com">
  <metadata>
    <name>R15 Km - 2 août 2019</name>
    <desc><![CDATA[comment ...]]></desc>
  </metadata>
  <trk>
    <name><![CDATA[R15 Km - 2 août 2019]]></name>
    <desc><![CDATA[comment ...]]></desc>
    <trkseg>
      <trkpt lat="47.85473" lon="0.30258">
        <ele>119</ele>
        <time>2019-08-02T07:39:35Z</time>
      </trkpt>
      <trkpt lat="47.85473" lon="0.30258">
        <ele>119</ele>
        <time>2019-08-02T07:39:36Z</time>
      </trkpt>
      <trkpt lat="47.85473" lon="0.30263">
        <ele>115</ele>
        <time>2019-08-02T07:40:16Z</time>
      </trkpt>
      <trkpt lat="47.85473" lon="0.30268">
        <ele>114</ele>
        <time>2019-08-02T07:40:19Z</time>
      </trkpt>
      <trkpt lat="47.85472" lon="0.30273">
        <ele>115</ele>
        <time>2019-08-02T07:40:23Z</time>
      </trkpt>
      <trkpt lat="47.8547" lon="0.30276">
        <ele>114</ele>
        <time>2019-08-02T07:40:26Z</time>
      </trkpt>
      <trkpt lat="47.85467" lon="0.30277">
        <ele>113</ele>
        <time>2019-08-02T07:40:29Z</time>
      </trkpt>
      <trkpt lat="47.85463" lon="0.30279">
        <ele>112</ele>
        <time>2019-08-02T07:40:32Z</time>
      </trkpt>
      <trkpt lat="47.85456" lon="0.30288">
        <ele>110</ele>
        <time>2019-08-02T07:40:41Z</time>
      </trkpt>
      <trkpt lat="47.85445" lon="0.30296">
        <ele>108</ele>
        <time>2019-08-02T07:40:52Z</time>
      </trkpt>
      <trkpt lat="47.8544" lon="0.30304">
        <ele>110</ele>
        <time>2019-08-02T07:40:58Z</time>
      </trkpt>
      <trkpt lat="47.85437" lon="0.30306">
        <ele>110</ele>
        <time>2019-08-02T07:41:02Z</time>
      </trkpt>
      <trkpt lat="47.85433" lon="0.30306">
        <ele>113</ele>
        <time>2019-08-02T07:41:07Z</time>
      </trkpt>
      <trkpt lat="47.8543" lon="0.30304">
        <ele>113</ele>
        <time>2019-08-02T07:41:10Z</time>
      </trkpt>
      <trkpt lat="47.8541" lon="0.30313">
        <ele>119</ele>
        <time>2019-08-02T07:41:26Z</time>
      </trkpt>
      <trkpt lat="47.85406" lon="0.30313">
        <ele>119</ele>
        <time>2019-08-02T07:41:28Z</time>
      </trkpt>
      <trkpt lat="47.85403" lon="0.30315">
        <ele>119</ele>
        <time>2019-08-02T07:41:30Z</time>
      </trkpt>
      <trkpt lat="47.85389" lon="0.30323">
        <ele>119</ele>
        <time>2019-08-02T07:41:40Z</time>
      </trkpt>
      <trkpt lat="47.85385" lon="0.30325">
        <ele>118</ele>
        <time>2019-08-02T07:41:43Z</time>
      </trkpt>
      <trkpt lat="47.85378" lon="0.30328">
        <ele>126</ele>
        <time>2019-08-02T07:41:49Z</time>
      </trkpt>
      <trkpt lat="47.85372" lon="0.30334">
        <ele>131</ele>
        <time>2019-08-02T07:41:55Z</time>
      </trkpt>
      <trkpt lat="47.85368" lon="0.30333">
        <ele>132</ele>
        <time>2019-08-02T07:42:07Z</time>
      </trkpt>
      <trkpt lat="47.85367" lon="0.30336">
        <ele>134</ele>
        <time>2019-08-02T07:42:11Z</time>
      </trkpt>
      <trkpt lat="47.85364" lon="0.30341">
        <ele>134</ele>
        <time>2019-08-02T07:42:14Z</time>
      </trkpt>
      <trkpt lat="47.85362" lon="0.30344">
        <ele>134</ele>
        <time>2019-08-02T07:42:17Z</time>
      </trkpt>
      <trkpt lat="47.85359" lon="0.30346">
        <ele>134</ele>
        <time>2019-08-02T07:42:27Z</time>
      </trkpt>
      <trkpt lat="47.85356" lon="0.30348">
        <ele>136</ele>
        <time>2019-08-02T07:42:34Z</time>
      </trkpt>
      <trkpt lat="47.85353" lon="0.30349">
        <ele>137</ele>
        <time>2019-08-02T07:42:36Z</time>
      </trkpt>
      <trkpt lat="47.85345" lon="0.3036">
        <ele>142</ele>
        <time>2019-08-02T07:42:44Z</time>
      </trkpt>
      <trkpt lat="47.85342" lon="0.30363">
        <ele>143</ele>
        <time>2019-08-02T07:42:46Z</time>
      </trkpt>
      <trkpt lat="47.85339" lon="0.30376">
        <ele>144</ele>
        <time>2019-08-02T07:42:58Z</time>
      </trkpt>
      <trkpt lat="47.85331" lon="0.30381">
        <ele>134</ele>
        <time>2019-08-02T07:43:06Z</time>
      </trkpt>
      <trkpt lat="47.85322" lon="0.30383">
        <ele>133</ele>
        <time>2019-08-02T07:43:12Z</time>
      </trkpt>
      <trkpt lat="47.85315" lon="0.30392">
        <ele>126</ele>
        <time>2019-08-02T07:43:22Z</time>
      </trkpt>
      <trkpt lat="47.85298" lon="0.30397">
        <ele>153</ele>
        <time>2019-08-02T07:43:54Z</time>
      </trkpt>
      <trkpt lat="47.85289" lon="0.30403">
        <ele>154</ele>
        <time>2019-08-02T07:44:01Z</time>
      </trkpt>
      <trkpt lat="47.85282" lon="0.30411">
        <ele>157</ele>
        <time>2019-08-02T07:44:10Z</time>
      </trkpt>
      <trkpt lat="47.85274" lon="0.30419">
        <ele>157</ele>
        <time>2019-08-02T07:44:18Z</time>
      </trkpt>
      <trkpt lat="47.85257" lon="0.30429">
        <ele>130</ele>
        <time>2019-08-02T07:44:28Z</time>
      </trkpt>
      <trkpt lat="47.85235" lon="0.30459">
        <ele>127</ele>
        <time>2019-08-02T07:44:53Z</time>
      </trkpt>
      <trkpt lat="47.85227" lon="0.30465">
        <ele>130</ele>
        <time>2019-08-02T07:45:00Z</time>
      </trkpt>
      <trkpt lat="47.85218" lon="0.30471">
        <ele>136</ele>
        <time>2019-08-02T07:45:06Z</time>
      </trkpt>
      <trkpt lat="47.8521" lon="0.30476">
        <ele>134</ele>
        <time>2019-08-02T07:45:13Z</time>
      </trkpt>
      <trkpt lat="47.85193" lon="0.30492">
        <ele>135</ele>
        <time>2019-08-02T07:45:30Z</time>
      </trkpt>
      <trkpt lat="47.85184" lon="0.30501">
        <ele>134</ele>
        <time>2019-08-02T07:45:37Z</time>
      </trkpt>
      <trkpt lat="47.85175" lon="0.30507">
        <ele>135</ele>
        <time>2019-08-02T07:45:45Z</time>
      </trkpt>
      <trkpt lat="47.85171" lon="0.30507">
        <ele>136</ele>
        <time>2019-08-02T07:45:48Z</time>
      </trkpt>
      <trkpt lat="47.85153" lon="0.30523">
        <ele>141</ele>
        <time>2019-08-02T07:46:02Z</time>
      </trkpt>
      <trkpt lat="47.85149" lon="0.30525">
        <ele>138</ele>
        <time>2019-08-02T07:46:06Z</time>
      </trkpt>
      <trkpt lat="47.85143" lon="0.30533">
        <ele>140</ele>
        <time>2019-08-02T07:46:12Z</time>
      </trkpt>
      <trkpt lat="47.8514" lon="0.30536">
        <ele>141</ele>
        <time>2019-08-02T07:46:15Z</time>
      </trkpt>
      <trkpt lat="47.85133" lon="0.30546">
        <ele>131</ele>
        <time>2019-08-02T07:46:23Z</time>
      </trkpt>
      <trkpt lat="47.85129" lon="0.30556">
        <ele>130</ele>
        <time>2019-08-02T07:46:27Z</time>
      </trkpt>
      <trkpt lat="47.85124" lon="0.30561">
        <ele>131</ele>
        <time>2019-08-02T07:46:31Z</time>
      </trkpt>
      <trkpt lat="47.8512" lon="0.30562">
        <ele>134</ele>
        <time>2019-08-02T07:46:34Z</time>
      </trkpt>
      <trkpt lat="47.85117" lon="0.3056">
        <ele>134</ele>
        <time>2019-08-02T07:46:39Z</time>
      </trkpt>
      <trkpt lat="47.85113" lon="0.30561">
        <ele>133</ele>
        <time>2019-08-02T07:46:42Z</time>
      </trkpt>
      <trkpt lat="47.85111" lon="0.30564">
        <ele>132</ele>
        <time>2019-08-02T07:46:44Z</time>
      </trkpt>
      <trkpt lat="47.85109" lon="0.30567">
        <ele>132</ele>
        <time>2019-08-02T07:46:46Z</time>
      </trkpt>
      <trkpt lat="47.85099" lon="0.30577">
        <ele>132</ele>
        <time>2019-08-02T07:46:54Z</time>
      </trkpt>
      <trkpt lat="47.85096" lon="0.30578">
        <ele>132</ele>
        <time>2019-08-02T07:46:59Z</time>
      </trkpt>
      <trkpt lat="47.85057" lon="0.30612">
        <ele>133</ele>
        <time>2019-08-02T07:47:31Z</time>
      </trkpt>
      <trkpt lat="47.85046" lon="0.30621">
        <ele>134</ele>
        <time>2019-08-02T07:47:40Z</time>
      </trkpt>
      <trkpt lat="47.8503" lon="0.30635">
        <ele>136</ele>
        <time>2019-08-02T07:47:55Z</time>
      </trkpt>
      <trkpt lat="47.85028" lon="0.3064">
        <ele>136</ele>
        <time>2019-08-02T07:47:57Z</time>
      </trkpt>
      <trkpt lat="47.85023" lon="0.30646">
        <ele>133</ele>
        <time>2019-08-02T07:48:02Z</time>
      </trkpt>
      <trkpt lat="47.85017" lon="0.3065">
        <ele>131</ele>
        <time>2019-08-02T07:48:07Z</time>
      </trkpt>
      <trkpt lat="47.85013" lon="0.30652">
        <ele>131</ele>
        <time>2019-08-02T07:48:10Z</time>
      </trkpt>
      <trkpt lat="47.84986" lon="0.30681">
        <ele>132</ele>
        <time>2019-08-02T07:48:36Z</time>
      </trkpt>
      <trkpt lat="47.84968" lon="0.30699">
        <ele>133</ele>
        <time>2019-08-02T07:48:55Z</time>
      </trkpt>
      <trkpt lat="47.84967" lon="0.30703">
        <ele>132</ele>
        <time>2019-08-02T07:48:58Z</time>
      </trkpt>
      <trkpt lat="47.84964" lon="0.30708">
        <ele>131</ele>
        <time>2019-08-02T07:49:01Z</time>
      </trkpt>
      <trkpt lat="47.84959" lon="0.30711">
        <ele>130</ele>
        <time>2019-08-02T07:49:03Z</time>
      </trkpt>
      <trkpt lat="47.84944" lon="0.30717">
        <ele>130</ele>
        <time>2019-08-02T07:49:15Z</time>
      </trkpt>
      <trkpt lat="47.84938" lon="0.30725">
        <ele>125</ele>
        <time>2019-08-02T07:49:22Z</time>
      </trkpt>
      <trkpt lat="47.84936" lon="0.30729">
        <ele>123</ele>
        <time>2019-08-02T07:49:25Z</time>
      </trkpt>
      <trkpt lat="47.84922" lon="0.30742">
        <ele>122</ele>
        <time>2019-08-02T07:49:38Z</time>
      </trkpt>
      <trkpt lat="47.8492" lon="0.30753">
        <ele>131</ele>
        <time>2019-08-02T07:49:47Z</time>
      </trkpt>
      <trkpt lat="47.84916" lon="0.30756">
        <ele>134</ele>
        <time>2019-08-02T07:49:50Z</time>
      </trkpt>
      <trkpt lat="47.84913" lon="0.30759">
        <ele>134</ele>
        <time>2019-08-02T07:49:54Z</time>
      </trkpt>
      <trkpt lat="47.84909" lon="0.30762">
        <ele>132</ele>
        <time>2019-08-02T07:49:57Z</time>
      </trkpt>
      <trkpt lat="47.84905" lon="0.30764">
        <ele>130</ele>
        <time>2019-08-02T07:50:00Z</time>
      </trkpt>
      <trkpt lat="47.84901" lon="0.30768">
        <ele>126</ele>
        <time>2019-08-02T07:50:03Z</time>
      </trkpt>
      <trkpt lat="47.84896" lon="0.3077">
        <ele>118</ele>
        <time>2019-08-02T07:50:06Z</time>
      </trkpt>
      <trkpt lat="47.84891" lon="0.30773">
        <ele>116</ele>
        <time>2019-08-02T07:50:09Z</time>
      </trkpt>
      <trkpt lat="47.84888" lon="0.30775">
        <ele>120</ele>
        <time>2019-08-02T07:50:11Z</time>
      </trkpt>
      <trkpt lat="47.8488" lon="0.30782">
        <ele>125</ele>
        <time>2019-08-02T07:50:17Z</time>
      </trkpt>
      <trkpt lat="47.84876" lon="0.30795">
        <ele>127</ele>
        <time>2019-08-02T07:50:25Z</time>
      </trkpt>
      <trkpt lat="47.84868" lon="0.30802">
        <ele>130</ele>
        <time>2019-08-02T07:50:31Z</time>
      </trkpt>
      <trkpt lat="47.84838" lon="0.30835">
        <ele>133</ele>
        <time>2019-08-02T07:50:53Z</time>
      </trkpt>
      <trkpt lat="47.84829" lon="0.30843">
        <ele>133</ele>
        <time>2019-08-02T07:50:59Z</time>
      </trkpt>
      <trkpt lat="47.84822" lon="0.3085">
        <ele>134</ele>
        <time>2019-08-02T07:51:06Z</time>
      </trkpt>
      <trkpt lat="47.84813" lon="0.30863">
        <ele>137</ele>
        <time>2019-08-02T07:51:16Z</time>
      </trkpt>
      <trkpt lat="47.84799" lon="0.30872">
        <ele>139</ele>
        <time>2019-08-02T07:51:26Z</time>
      </trkpt>
      <trkpt lat="47.84796" lon="0.30876">
        <ele>139</ele>
        <time>2019-08-02T07:51:29Z</time>
      </trkpt>
      <trkpt lat="47.84791" lon="0.30885">
        <ele>137</ele>
        <time>2019-08-02T07:51:35Z</time>
      </trkpt>
      <trkpt lat="47.84785" lon="0.3089">
        <ele>134</ele>
        <time>2019-08-02T07:51:41Z</time>
      </trkpt>
      <trkpt lat="47.84783" lon="0.30891">
        <ele>134</ele>
        <time>2019-08-02T07:51:43Z</time>
      </trkpt>
      <trkpt lat="47.8478" lon="0.30893">
        <ele>135</ele>
        <time>2019-08-02T07:51:45Z</time>
      </trkpt>
      <trkpt lat="47.84773" lon="0.30898">
        <ele>135</ele>
        <time>2019-08-02T07:51:50Z</time>
      </trkpt>
      <trkpt lat="47.84765" lon="0.30906">
        <ele>130</ele>
        <time>2019-08-02T07:51:56Z</time>
      </trkpt>
      <trkpt lat="47.84745" lon="0.30927">
        <ele>124</ele>
        <time>2019-08-02T07:52:12Z</time>
      </trkpt>
      <trkpt lat="47.84742" lon="0.30929">
        <ele>124</ele>
        <time>2019-08-02T07:52:15Z</time>
      </trkpt>
      <trkpt lat="47.84733" lon="0.30937">
        <ele>124</ele>
        <time>2019-08-02T07:52:22Z</time>
      </trkpt>
      <trkpt lat="47.84728" lon="0.30943">
        <ele>120</ele>
        <time>2019-08-02T07:52:29Z</time>
      </trkpt>
      <trkpt lat="47.84719" lon="0.3095">
        <ele>121</ele>
        <time>2019-08-02T07:52:36Z</time>
      </trkpt>
      <trkpt lat="47.84716" lon="0.30954">
        <ele>118</ele>
        <time>2019-08-02T07:52:39Z</time>
      </trkpt>
      <trkpt lat="47.84714" lon="0.30956">
        <ele>120</ele>
        <time>2019-08-02T07:52:42Z</time>
      </trkpt>
      <trkpt lat="47.84707" lon="0.30962">
        <ele>125</ele>
        <time>2019-08-02T07:52:48Z</time>
      </trkpt>
      <trkpt lat="47.8469" lon="0.30982">
        <ele>135</ele>
        <time>2019-08-02T07:53:03Z</time>
      </trkpt>
      <trkpt lat="47.84657" lon="0.30993">
        <ele>122</ele>
        <time>2019-08-02T07:53:24Z</time>
      </trkpt>
      <trkpt lat="47.84648" lon="0.30997">
        <ele>117</ele>
        <time>2019-08-02T07:53:30Z</time>
      </trkpt>
      <trkpt lat="47.84645" lon="0.30996">
        <ele>117</ele>
        <time>2019-08-02T07:53:38Z</time>
      </trkpt>
      <trkpt lat="47.84646" lon="0.30992">
        <ele>117</ele>
        <time>2019-08-02T07:53:46Z</time>
      </trkpt>
      <trkpt lat="47.84649" lon="0.30995">
        <ele>119</ele>
        <time>2019-08-02T07:53:53Z</time>
      </trkpt>
      <trkpt lat="47.84645" lon="0.30997">
        <ele>119</ele>
        <time>2019-08-02T07:54:02Z</time>
      </trkpt>
      <trkpt lat="47.84642" lon="0.30999">
        <ele>123</ele>
        <time>2019-08-02T07:54:04Z</time>
      </trkpt>
      <trkpt lat="47.8464" lon="0.31001">
        <ele>124</ele>
        <time>2019-08-02T07:54:06Z</time>
      </trkpt>
      <trkpt lat="47.84632" lon="0.31005">
        <ele>123</ele>
        <time>2019-08-02T07:54:12Z</time>
      </trkpt>
      <trkpt lat="47.84629" lon="0.31008">
        <ele>123</ele>
        <time>2019-08-02T07:54:15Z</time>
      </trkpt>
      <trkpt lat="47.84629" lon="0.31014">
        <ele>122</ele>
        <time>2019-08-02T07:54:19Z</time>
      </trkpt>
      <trkpt lat="47.84629" lon="0.3102">
        <ele>114</ele>
        <time>2019-08-02T07:54:23Z</time>
      </trkpt>
      <trkpt lat="47.84625" lon="0.31022">
        <ele>114</ele>
        <time>2019-08-02T07:54:25Z</time>
      </trkpt>
      <trkpt lat="47.84608" lon="0.31026">
        <ele>122</ele>
        <time>2019-08-02T07:54:35Z</time>
      </trkpt>
      <trkpt lat="47.84605" lon="0.31027">
        <ele>121</ele>
        <time>2019-08-02T07:54:38Z</time>
      </trkpt>
      <trkpt lat="47.84599" lon="0.31035">
        <ele>125</ele>
        <time>2019-08-02T07:54:44Z</time>
      </trkpt>
      <trkpt lat="47.84596" lon="0.31037">
        <ele>126</ele>
        <time>2019-08-02T07:54:46Z</time>
      </trkpt>
      <trkpt lat="47.84591" lon="0.31047">
        <ele>126</ele>
        <time>2019-08-02T07:54:50Z</time>
      </trkpt>
      <trkpt lat="47.84587" lon="0.31051">
        <ele>123</ele>
        <time>2019-08-02T07:54:52Z</time>
      </trkpt>
      <trkpt lat="47.84584" lon="0.31051">
        <ele>120</ele>
        <time>2019-08-02T07:54:54Z</time>
      </trkpt>
      <trkpt lat="47.84575" lon="0.31055">
        <ele>132</ele>
        <time>2019-08-02T07:55:01Z</time>
      </trkpt>
      <trkpt lat="47.84567" lon="0.31064">
        <ele>131</ele>
        <time>2019-08-02T07:55:07Z</time>
      </trkpt>
      <trkpt lat="47.84552" lon="0.31094">
        <ele>116</ele>
        <time>2019-08-02T07:55:28Z</time>
      </trkpt>
      <trkpt lat="47.84548" lon="0.31098">
        <ele>124</ele>
        <time>2019-08-02T07:55:31Z</time>
      </trkpt>
      <trkpt lat="47.84541" lon="0.31104">
        <ele>126</ele>
        <time>2019-08-02T07:55:36Z</time>
      </trkpt>
      <trkpt lat="47.84539" lon="0.31107">
        <ele>125</ele>
        <time>2019-08-02T07:55:38Z</time>
      </trkpt>
      <trkpt lat="47.8452" lon="0.31129">
        <ele>126</ele>
        <time>2019-08-02T07:55:55Z</time>
      </trkpt>
      <trkpt lat="47.84514" lon="0.31133">
        <ele>128</ele>
        <time>2019-08-02T07:56:01Z</time>
      </trkpt>
      <trkpt lat="47.84507" lon="0.31137">
        <ele>120</ele>
        <time>2019-08-02T07:56:07Z</time>
      </trkpt>
      <trkpt lat="47.84506" lon="0.3114">
        <ele>119</ele>
        <time>2019-08-02T07:56:09Z</time>
      </trkpt>
      <trkpt lat="47.84497" lon="0.3115">
        <ele>119</ele>
        <time>2019-08-02T07:56:18Z</time>
      </trkpt>
      <trkpt lat="47.84488" lon="0.31155">
        <ele>121</ele>
        <time>2019-08-02T07:56:24Z</time>
      </trkpt>
      <trkpt lat="47.84483" lon="0.31165">
        <ele>119</ele>
        <time>2019-08-02T07:56:32Z</time>
      </trkpt>
      <trkpt lat="47.84482" lon="0.31172">
        <ele>119</ele>
        <time>2019-08-02T07:56:35Z</time>
      </trkpt>
      <trkpt lat="47.84482" lon="0.31177">
        <ele>119</ele>
        <time>2019-08-02T07:56:38Z</time>
      </trkpt>
      <trkpt lat="47.84482" lon="0.31182">
        <ele>119</ele>
        <time>2019-08-02T07:56:41Z</time>
      </trkpt>
      <trkpt lat="47.84484" lon="0.31202">
        <ele>115</ele>
        <time>2019-08-02T07:56:50Z</time>
      </trkpt>
      <trkpt lat="47.84483" lon="0.31212">
        <ele>116</ele>
        <time>2019-08-02T07:56:55Z</time>
      </trkpt>
      <trkpt lat="47.84482" lon="0.31238">
        <ele>116</ele>
        <time>2019-08-02T07:57:07Z</time>
      </trkpt>
      <trkpt lat="47.84484" lon="0.31259">
        <ele>108</ele>
        <time>2019-08-02T07:57:16Z</time>
      </trkpt>
      <trkpt lat="47.84486" lon="0.31271">
        <ele>109</ele>
        <time>2019-08-02T07:57:22Z</time>
      </trkpt>
      <trkpt lat="47.84487" lon="0.31288">
        <ele>110</ele>
        <time>2019-08-02T07:57:29Z</time>
      </trkpt>
      <trkpt lat="47.84488" lon="0.31294">
        <ele>112</ele>
        <time>2019-08-02T07:57:31Z</time>
      </trkpt>
      <trkpt lat="47.84488" lon="0.31318">
        <ele>122</ele>
        <time>2019-08-02T07:57:43Z</time>
      </trkpt>
      <trkpt lat="47.84485" lon="0.3132">
        <ele>127</ele>
        <time>2019-08-02T07:57:48Z</time>
      </trkpt>
      <trkpt lat="47.84484" lon="0.31325">
        <ele>127</ele>
        <time>2019-08-02T07:57:51Z</time>
      </trkpt>
      <trkpt lat="47.84485" lon="0.31336">
        <ele>119</ele>
        <time>2019-08-02T07:57:56Z</time>
      </trkpt>
      <trkpt lat="47.84487" lon="0.31343">
        <ele>116</ele>
        <time>2019-08-02T07:57:58Z</time>
      </trkpt>
      <trkpt lat="47.84488" lon="0.3135">
        <ele>116</ele>
        <time>2019-08-02T07:58:01Z</time>
      </trkpt>
      <trkpt lat="47.84488" lon="0.31354">
        <ele>115</ele>
        <time>2019-08-02T07:58:03Z</time>
      </trkpt>
      <trkpt lat="47.84487" lon="0.31379">
        <ele>122</ele>
        <time>2019-08-02T07:58:15Z</time>
      </trkpt>
      <trkpt lat="47.84487" lon="0.31391">
        <ele>124</ele>
        <time>2019-08-02T07:58:20Z</time>
      </trkpt>
      <trkpt lat="47.8449" lon="0.31417">
        <ele>123</ele>
        <time>2019-08-02T07:58:30Z</time>
      </trkpt>
      <trkpt lat="47.84496" lon="0.31437">
        <ele>130</ele>
        <time>2019-08-02T07:58:43Z</time>
      </trkpt>
      <trkpt lat="47.84498" lon="0.31459">
        <ele>129</ele>
        <time>2019-08-02T07:58:53Z</time>
      </trkpt>
      <trkpt lat="47.84497" lon="0.31466">
        <ele>128</ele>
        <time>2019-08-02T07:58:56Z</time>
      </trkpt>
      <trkpt lat="47.84499" lon="0.31477">
        <ele>126</ele>
        <time>2019-08-02T07:59:02Z</time>
      </trkpt>
      <trkpt lat="47.84503" lon="0.31502">
        <ele>123</ele>
        <time>2019-08-02T07:59:19Z</time>
      </trkpt>
      <trkpt lat="47.84501" lon="0.31524">
        <ele>123</ele>
        <time>2019-08-02T07:59:28Z</time>
      </trkpt>
      <trkpt lat="47.84499" lon="0.31557">
        <ele>121</ele>
        <time>2019-08-02T07:59:42Z</time>
      </trkpt>
      <trkpt lat="47.84498" lon="0.31566">
        <ele>120</ele>
        <time>2019-08-02T07:59:46Z</time>
      </trkpt>
      <trkpt lat="47.84498" lon="0.31603">
        <ele>114</ele>
        <time>2019-08-02T08:00:02Z</time>
      </trkpt>
      <trkpt lat="47.84498" lon="0.31607">
        <ele>116</ele>
        <time>2019-08-02T08:00:04Z</time>
      </trkpt>
      <trkpt lat="47.84496" lon="0.31611">
        <ele>117</ele>
        <time>2019-08-02T08:00:07Z</time>
      </trkpt>
      <trkpt lat="47.84495" lon="0.31623">
        <ele>123</ele>
        <time>2019-08-02T08:00:14Z</time>
      </trkpt>
      <trkpt lat="47.84491" lon="0.31682">
        <ele>116</ele>
        <time>2019-08-02T08:00:44Z</time>
      </trkpt>
      <trkpt lat="47.84487" lon="0.31707">
        <ele>121</ele>
        <time>2019-08-02T08:00:58Z</time>
      </trkpt>
      <trkpt lat="47.84486" lon="0.31712">
        <ele>121</ele>
        <time>2019-08-02T08:01:01Z</time>
      </trkpt>
      <trkpt lat="47.84486" lon="0.31724">
        <ele>121</ele>
        <time>2019-08-02T08:01:07Z</time>
      </trkpt>
      <trkpt lat="47.84486" lon="0.31734">
        <ele>116</ele>
        <time>2019-08-02T08:01:15Z</time>
      </trkpt>
      <trkpt lat="47.84484" lon="0.31769">
        <ele>114</ele>
        <time>2019-08-02T08:01:35Z</time>
      </trkpt>
      <trkpt lat="47.84485" lon="0.31775">
        <ele>114</ele>
        <time>2019-08-02T08:01:37Z</time>
      </trkpt>
      <trkpt lat="47.84485" lon="0.31783">
        <ele>113</ele>
        <time>2019-08-02T08:01:40Z</time>
      </trkpt>
      <trkpt lat="47.84484" lon="0.31791">
        <ele>113</ele>
        <time>2019-08-02T08:01:43Z</time>
      </trkpt>
      <trkpt lat="47.84483" lon="0.31797">
        <ele>113</ele>
        <time>2019-08-02T08:01:46Z</time>
      </trkpt>
      <trkpt lat="47.84485" lon="0.31808">
        <ele>116</ele>
        <time>2019-08-02T08:01:51Z</time>
      </trkpt>
      <trkpt lat="47.84484" lon="0.31813">
        <ele>116</ele>
        <time>2019-08-02T08:01:54Z</time>
      </trkpt>
      <trkpt lat="47.84484" lon="0.31818">
        <ele>115</ele>
        <time>2019-08-02T08:01:57Z</time>
      </trkpt>
      <trkpt lat="47.84484" lon="0.31825">
        <ele>113</ele>
        <time>2019-08-02T08:02:00Z</time>
      </trkpt>
      <trkpt lat="47.84486" lon="0.3185">
        <ele>115</ele>
        <time>2019-08-02T08:02:11Z</time>
      </trkpt>
      <trkpt lat="47.84487" lon="0.31854">
        <ele>114</ele>
        <time>2019-08-02T08:02:13Z</time>
      </trkpt>
      <trkpt lat="47.84488" lon="0.3186">
        <ele>113</ele>
        <time>2019-08-02T08:02:16Z</time>
      </trkpt>
      <trkpt lat="47.84487" lon="0.31867">
        <ele>111</ele>
        <time>2019-08-02T08:02:19Z</time>
      </trkpt>
      <trkpt lat="47.84485" lon="0.31886">
        <ele>112</ele>
        <time>2019-08-02T08:02:27Z</time>
      </trkpt>
      <trkpt lat="47.84484" lon="0.31903">
        <ele>114</ele>
        <time>2019-08-02T08:02:35Z</time>
      </trkpt>
      <trkpt lat="47.84485" lon="0.31913">
        <ele>112</ele>
        <time>2019-08-02T08:02:39Z</time>
      </trkpt>
      <trkpt lat="47.84486" lon="0.31917">
        <ele>112</ele>
        <time>2019-08-02T08:02:41Z</time>
      </trkpt>
      <trkpt lat="47.84485" lon="0.31924">
        <ele>111</ele>
        <time>2019-08-02T08:02:44Z</time>
      </trkpt>
      <trkpt lat="47.84479" lon="0.31937">
        <ele>115</ele>
        <time>2019-08-02T08:02:51Z</time>
      </trkpt>
      <trkpt lat="47.84478" lon="0.31986">
        <ele>113</ele>
        <time>2019-08-02T08:03:16Z</time>
      </trkpt>
      <trkpt lat="47.84476" lon="0.31995">
        <ele>115</ele>
        <time>2019-08-02T08:03:20Z</time>
      </trkpt>
      <trkpt lat="47.84476" lon="0.32039">
        <ele>110</ele>
        <time>2019-08-02T08:03:40Z</time>
      </trkpt>
      <trkpt lat="47.84476" lon="0.32045">
        <ele>111</ele>
        <time>2019-08-02T08:03:43Z</time>
      </trkpt>
      <trkpt lat="47.84475" lon="0.3205">
        <ele>120</ele>
        <time>2019-08-02T08:03:46Z</time>
      </trkpt>
      <trkpt lat="47.84475" lon="0.32066">
        <ele>121</ele>
        <time>2019-08-02T08:03:55Z</time>
      </trkpt>
      <trkpt lat="47.84476" lon="0.32083">
        <ele>122</ele>
        <time>2019-08-02T08:04:04Z</time>
      </trkpt>
      <trkpt lat="47.84471" lon="0.32111">
        <ele>113</ele>
        <time>2019-08-02T08:04:20Z</time>
      </trkpt>
      <trkpt lat="47.84469" lon="0.32115">
        <ele>110</ele>
        <time>2019-08-02T08:04:22Z</time>
      </trkpt>
      <trkpt lat="47.84466" lon="0.32137">
        <ele>118</ele>
        <time>2019-08-02T08:04:36Z</time>
      </trkpt>
      <trkpt lat="47.84459" lon="0.32151">
        <ele>116</ele>
        <time>2019-08-02T08:04:46Z</time>
      </trkpt>
      <trkpt lat="47.84456" lon="0.32159">
        <ele>119</ele>
        <time>2019-08-02T08:04:52Z</time>
      </trkpt>
      <trkpt lat="47.84439" lon="0.32208">
        <ele>128</ele>
        <time>2019-08-02T08:05:21Z</time>
      </trkpt>
      <trkpt lat="47.84438" lon="0.32218">
        <ele>129</ele>
        <time>2019-08-02T08:05:27Z</time>
      </trkpt>
      <trkpt lat="47.84425" lon="0.32251">
        <ele>110</ele>
        <time>2019-08-02T08:05:43Z</time>
      </trkpt>
      <trkpt lat="47.84419" lon="0.32263">
        <ele>113</ele>
        <time>2019-08-02T08:05:51Z</time>
      </trkpt>
      <trkpt lat="47.84417" lon="0.32267">
        <ele>114</ele>
        <time>2019-08-02T08:05:54Z</time>
      </trkpt>
      <trkpt lat="47.84415" lon="0.32271">
        <ele>114</ele>
        <time>2019-08-02T08:05:56Z</time>
      </trkpt>
      <trkpt lat="47.84408" lon="0.32314">
        <ele>116</ele>
        <time>2019-08-02T08:06:21Z</time>
      </trkpt>
      <trkpt lat="47.84408" lon="0.32329">
        <ele>116</ele>
        <time>2019-08-02T08:06:28Z</time>
      </trkpt>
      <trkpt lat="47.84408" lon="0.32339">
        <ele>117</ele>
        <time>2019-08-02T08:06:33Z</time>
      </trkpt>
      <trkpt lat="47.84405" lon="0.32368">
        <ele>119</ele>
        <time>2019-08-02T08:06:48Z</time>
      </trkpt>
      <trkpt lat="47.84404" lon="0.32395">
        <ele>119</ele>
        <time>2019-08-02T08:07:02Z</time>
      </trkpt>
      <trkpt lat="47.84403" lon="0.324">
        <ele>118</ele>
        <time>2019-08-02T08:07:04Z</time>
      </trkpt>
      <trkpt lat="47.84398" lon="0.32442">
        <ele>129</ele>
        <time>2019-08-02T08:07:26Z</time>
      </trkpt>
      <trkpt lat="47.84398" lon="0.32449">
        <ele>125</ele>
        <time>2019-08-02T08:07:30Z</time>
      </trkpt>
      <trkpt lat="47.84379" lon="0.32505">
        <ele>126</ele>
        <time>2019-08-02T08:08:00Z</time>
      </trkpt>
      <trkpt lat="47.84372" lon="0.32522">
        <ele>128</ele>
        <time>2019-08-02T08:08:10Z</time>
      </trkpt>
      <trkpt lat="47.84368" lon="0.32527">
        <ele>127</ele>
        <time>2019-08-02T08:08:14Z</time>
      </trkpt>
      <trkpt lat="47.84365" lon="0.32537">
        <ele>127</ele>
        <time>2019-08-02T08:08:45Z</time>
      </trkpt>
      <trkpt lat="47.84358" lon="0.3256">
        <ele>127</ele>
        <time>2019-08-02T08:09:02Z</time>
      </trkpt>
      <trkpt lat="47.84356" lon="0.32569">
        <ele>126</ele>
        <time>2019-08-02T08:09:07Z</time>
      </trkpt>
      <trkpt lat="47.84351" lon="0.3258">
        <ele>121</ele>
        <time>2019-08-02T08:09:14Z</time>
      </trkpt>
      <trkpt lat="47.84351" lon="0.32586">
        <ele>120</ele>
        <time>2019-08-02T08:09:17Z</time>
      </trkpt>
      <trkpt lat="47.8435" lon="0.32592">
        <ele>114</ele>
        <time>2019-08-02T08:09:20Z</time>
      </trkpt>
      <trkpt lat="47.84351" lon="0.32597">
        <ele>117</ele>
        <time>2019-08-02T08:09:24Z</time>
      </trkpt>
      <trkpt lat="47.84355" lon="0.32614">
        <ele>131</ele>
        <time>2019-08-02T08:09:34Z</time>
      </trkpt>
      <trkpt lat="47.84354" lon="0.32618">
        <ele>132</ele>
        <time>2019-08-02T08:09:36Z</time>
      </trkpt>
      <trkpt lat="47.84357" lon="0.32644">
        <ele>130</ele>
        <time>2019-08-02T08:09:47Z</time>
      </trkpt>
      <trkpt lat="47.84358" lon="0.32649">
        <ele>123</ele>
        <time>2019-08-02T08:09:49Z</time>
      </trkpt>
      <trkpt lat="47.84359" lon="0.32661">
        <ele>118</ele>
        <time>2019-08-02T08:09:53Z</time>
      </trkpt>
      <trkpt lat="47.8436" lon="0.32667">
        <ele>123</ele>
        <time>2019-08-02T08:09:55Z</time>
      </trkpt>
      <trkpt lat="47.84364" lon="0.32684">
        <ele>123</ele>
        <time>2019-08-02T08:10:05Z</time>
      </trkpt>
      <trkpt lat="47.84367" lon="0.32695">
        <ele>128</ele>
        <time>2019-08-02T08:10:11Z</time>
      </trkpt>
      <trkpt lat="47.84368" lon="0.32711">
        <ele>122</ele>
        <time>2019-08-02T08:10:19Z</time>
      </trkpt>
      <trkpt lat="47.84368" lon="0.32716">
        <ele>123</ele>
        <time>2019-08-02T08:10:22Z</time>
      </trkpt>
      <trkpt lat="47.84368" lon="0.3272">
        <ele>125</ele>
        <time>2019-08-02T08:10:25Z</time>
      </trkpt>
      <trkpt lat="47.8437" lon="0.32724">
        <ele>135</ele>
        <time>2019-08-02T08:10:28Z</time>
      </trkpt>
      <trkpt lat="47.84369" lon="0.32729">
        <ele>136</ele>
        <time>2019-08-02T08:10:31Z</time>
      </trkpt>
      <trkpt lat="47.8437" lon="0.32733">
        <ele>133</ele>
        <time>2019-08-02T08:10:34Z</time>
      </trkpt>
      <trkpt lat="47.8437" lon="0.32738">
        <ele>132</ele>
        <time>2019-08-02T08:10:36Z</time>
      </trkpt>
      <trkpt lat="47.8437" lon="0.32744">
        <ele>130</ele>
        <time>2019-08-02T08:10:39Z</time>
      </trkpt>
      <trkpt lat="47.84369" lon="0.32759">
        <ele>130</ele>
        <time>2019-08-02T08:10:50Z</time>
      </trkpt>
      <trkpt lat="47.8437" lon="0.32776">
        <ele>130</ele>
        <time>2019-08-02T08:10:56Z</time>
      </trkpt>
      <trkpt lat="47.84371" lon="0.32782">
        <ele>130</ele>
        <time>2019-08-02T08:10:59Z</time>
      </trkpt>
      <trkpt lat="47.84373" lon="0.32786">
        <ele>131</ele>
        <time>2019-08-02T08:11:01Z</time>
      </trkpt>
      <trkpt lat="47.84375" lon="0.3279">
        <ele>131</ele>
        <time>2019-08-02T08:11:05Z</time>
      </trkpt>
      <trkpt lat="47.84375" lon="0.32795">
        <ele>130</ele>
        <time>2019-08-02T08:11:08Z</time>
      </trkpt>
      <trkpt lat="47.84378" lon="0.32805">
        <ele>130</ele>
        <time>2019-08-02T08:11:13Z</time>
      </trkpt>
      <trkpt lat="47.84377" lon="0.32813">
        <ele>130</ele>
        <time>2019-08-02T08:11:16Z</time>
      </trkpt>
      <trkpt lat="47.84375" lon="0.32844">
        <ele>126</ele>
        <time>2019-08-02T08:11:31Z</time>
      </trkpt>
      <trkpt lat="47.84376" lon="0.32858">
        <ele>132</ele>
        <time>2019-08-02T08:11:37Z</time>
      </trkpt>
      <trkpt lat="47.84385" lon="0.32896">
        <ele>131</ele>
        <time>2019-08-02T08:11:50Z</time>
      </trkpt>
      <trkpt lat="47.84382" lon="0.32918">
        <ele>129</ele>
        <time>2019-08-02T08:12:00Z</time>
      </trkpt>
      <trkpt lat="47.84378" lon="0.32934">
        <ele>129</ele>
        <time>2019-08-02T08:12:07Z</time>
      </trkpt>
      <trkpt lat="47.8437" lon="0.32996">
        <ele>142</ele>
        <time>2019-08-02T08:12:39Z</time>
      </trkpt>
      <trkpt lat="47.8437" lon="0.33001">
        <ele>139</ele>
        <time>2019-08-02T08:12:44Z</time>
      </trkpt>
      <trkpt lat="47.84373" lon="0.33017">
        <ele>132</ele>
        <time>2019-08-02T08:12:54Z</time>
      </trkpt>
      <trkpt lat="47.84372" lon="0.33028">
        <ele>131</ele>
        <time>2019-08-02T08:12:58Z</time>
      </trkpt>
      <trkpt lat="47.8437" lon="0.33045">
        <ele>134</ele>
        <time>2019-08-02T08:13:05Z</time>
      </trkpt>
      <trkpt lat="47.84366" lon="0.33065">
        <ele>135</ele>
        <time>2019-08-02T08:13:15Z</time>
      </trkpt>
      <trkpt lat="47.84365" lon="0.3307">
        <ele>136</ele>
        <time>2019-08-02T08:13:18Z</time>
      </trkpt>
      <trkpt lat="47.84366" lon="0.3308">
        <ele>139</ele>
        <time>2019-08-02T08:13:24Z</time>
      </trkpt>
      <trkpt lat="47.84364" lon="0.33091">
        <ele>138</ele>
        <time>2019-08-02T08:13:29Z</time>
      </trkpt>
      <trkpt lat="47.84364" lon="0.33099">
        <ele>136</ele>
        <time>2019-08-02T08:13:32Z</time>
      </trkpt>
      <trkpt lat="47.84363" lon="0.33104">
        <ele>137</ele>
        <time>2019-08-02T08:13:34Z</time>
      </trkpt>
      <trkpt lat="47.84362" lon="0.33117">
        <ele>136</ele>
        <time>2019-08-02T08:13:40Z</time>
      </trkpt>
      <trkpt lat="47.84361" lon="0.3313">
        <ele>136</ele>
        <time>2019-08-02T08:13:46Z</time>
      </trkpt>
      <trkpt lat="47.84359" lon="0.33155">
        <ele>134</ele>
        <time>2019-08-02T08:13:59Z</time>
      </trkpt>
      <trkpt lat="47.84356" lon="0.33166">
        <ele>130</ele>
        <time>2019-08-02T08:14:05Z</time>
      </trkpt>
      <trkpt lat="47.84356" lon="0.33171">
        <ele>129</ele>
        <time>2019-08-02T08:14:08Z</time>
      </trkpt>
      <trkpt lat="47.84355" lon="0.33176">
        <ele>126</ele>
        <time>2019-08-02T08:14:13Z</time>
      </trkpt>
      <trkpt lat="47.84347" lon="0.33201">
        <ele>133</ele>
        <time>2019-08-02T08:14:26Z</time>
      </trkpt>
      <trkpt lat="47.84346" lon="0.33206">
        <ele>132</ele>
        <time>2019-08-02T08:14:29Z</time>
      </trkpt>
      <trkpt lat="47.84344" lon="0.33211">
        <ele>132</ele>
        <time>2019-08-02T08:14:32Z</time>
      </trkpt>
      <trkpt lat="47.84338" lon="0.33241">
        <ele>138</ele>
        <time>2019-08-02T08:14:50Z</time>
      </trkpt>
      <trkpt lat="47.84338" lon="0.33247">
        <ele>139</ele>
        <time>2019-08-02T08:14:54Z</time>
      </trkpt>
      <trkpt lat="47.84339" lon="0.33268">
        <ele>139</ele>
        <time>2019-08-02T08:15:05Z</time>
      </trkpt>
      <trkpt lat="47.84335" lon="0.33287">
        <ele>138</ele>
        <time>2019-08-02T08:15:14Z</time>
      </trkpt>
      <trkpt lat="47.84333" lon="0.33294">
        <ele>140</ele>
        <time>2019-08-02T08:15:18Z</time>
      </trkpt>
      <trkpt lat="47.84333" lon="0.33307">
        <ele>141</ele>
        <time>2019-08-02T08:15:24Z</time>
      </trkpt>
      <trkpt lat="47.84331" lon="0.33312">
        <ele>140</ele>
        <time>2019-08-02T08:15:28Z</time>
      </trkpt>
      <trkpt lat="47.84329" lon="0.33316">
        <ele>140</ele>
        <time>2019-08-02T08:15:31Z</time>
      </trkpt>
      <trkpt lat="47.84329" lon="0.3332">
        <ele>144</ele>
        <time>2019-08-02T08:15:34Z</time>
      </trkpt>
      <trkpt lat="47.84322" lon="0.33337">
        <ele>134</ele>
        <time>2019-08-02T08:15:44Z</time>
      </trkpt>
      <trkpt lat="47.8432" lon="0.33341">
        <ele>127</ele>
        <time>2019-08-02T08:15:48Z</time>
      </trkpt>
      <trkpt lat="47.84318" lon="0.33345">
        <ele>132</ele>
        <time>2019-08-02T08:15:52Z</time>
      </trkpt>
      <trkpt lat="47.84319" lon="0.3335">
        <ele>135</ele>
        <time>2019-08-02T08:15:55Z</time>
      </trkpt>
      <trkpt lat="47.84319" lon="0.33355">
        <ele>153</ele>
        <time>2019-08-02T08:15:59Z</time>
      </trkpt>
      <trkpt lat="47.84318" lon="0.33359">
        <ele>156</ele>
        <time>2019-08-02T08:16:02Z</time>
      </trkpt>
      <trkpt lat="47.84315" lon="0.33375">
        <ele>165</ele>
        <time>2019-08-02T08:16:09Z</time>
      </trkpt>
      <trkpt lat="47.84315" lon="0.33379">
        <ele>164</ele>
        <time>2019-08-02T08:16:11Z</time>
      </trkpt>
      <trkpt lat="47.84315" lon="0.33385">
        <ele>163</ele>
        <time>2019-08-02T08:16:13Z</time>
      </trkpt>
      <trkpt lat="47.84314" lon="0.33391">
        <ele>161</ele>
        <time>2019-08-02T08:16:17Z</time>
      </trkpt>
      <trkpt lat="47.84311" lon="0.33409">
        <ele>159</ele>
        <time>2019-08-02T08:16:23Z</time>
      </trkpt>
      <trkpt lat="47.8431" lon="0.33444">
        <ele>160</ele>
        <time>2019-08-02T08:16:44Z</time>
      </trkpt>
      <trkpt lat="47.84306" lon="0.33455">
        <ele>161</ele>
        <time>2019-08-02T08:16:51Z</time>
      </trkpt>
      <trkpt lat="47.84307" lon="0.33466">
        <ele>161</ele>
        <time>2019-08-02T08:16:57Z</time>
      </trkpt>
      <trkpt lat="47.84307" lon="0.33473">
        <ele>161</ele>
        <time>2019-08-02T08:17:00Z</time>
      </trkpt>
      <trkpt lat="47.84305" lon="0.33497">
        <ele>163</ele>
        <time>2019-08-02T08:17:09Z</time>
      </trkpt>
      <trkpt lat="47.84302" lon="0.33507">
        <ele>163</ele>
        <time>2019-08-02T08:17:13Z</time>
      </trkpt>
      <trkpt lat="47.84299" lon="0.33518">
        <ele>163</ele>
        <time>2019-08-02T08:17:19Z</time>
      </trkpt>
      <trkpt lat="47.84298" lon="0.33523">
        <ele>163</ele>
        <time>2019-08-02T08:17:22Z</time>
      </trkpt>
      <trkpt lat="47.84297" lon="0.33533">
        <ele>164</ele>
        <time>2019-08-02T08:17:26Z</time>
      </trkpt>
      <trkpt lat="47.84297" lon="0.33539">
        <ele>163</ele>
        <time>2019-08-02T08:17:29Z</time>
      </trkpt>
      <trkpt lat="47.84295" lon="0.33549">
        <ele>164</ele>
        <time>2019-08-02T08:17:35Z</time>
      </trkpt>
      <trkpt lat="47.84294" lon="0.33555">
        <ele>163</ele>
        <time>2019-08-02T08:17:38Z</time>
      </trkpt>
      <trkpt lat="47.84293" lon="0.33566">
        <ele>161</ele>
        <time>2019-08-02T08:17:42Z</time>
      </trkpt>
      <trkpt lat="47.84293" lon="0.33576">
        <ele>160</ele>
        <time>2019-08-02T08:17:47Z</time>
      </trkpt>
      <trkpt lat="47.84291" lon="0.33585">
        <ele>160</ele>
        <time>2019-08-02T08:17:52Z</time>
      </trkpt>
      <trkpt lat="47.8429" lon="0.33599">
        <ele>161</ele>
        <time>2019-08-02T08:18:00Z</time>
      </trkpt>
      <trkpt lat="47.84288" lon="0.33603">
        <ele>160</ele>
        <time>2019-08-02T08:18:03Z</time>
      </trkpt>
      <trkpt lat="47.84286" lon="0.33617">
        <ele>163</ele>
        <time>2019-08-02T08:18:12Z</time>
      </trkpt>
      <trkpt lat="47.84285" lon="0.33622">
        <ele>162</ele>
        <time>2019-08-02T08:18:14Z</time>
      </trkpt>
      <trkpt lat="47.84285" lon="0.3364">
        <ele>161</ele>
        <time>2019-08-02T08:18:24Z</time>
      </trkpt>
      <trkpt lat="47.84282" lon="0.33644">
        <ele>163</ele>
        <time>2019-08-02T08:18:28Z</time>
      </trkpt>
      <trkpt lat="47.8428" lon="0.33649">
        <ele>165</ele>
        <time>2019-08-02T08:18:31Z</time>
      </trkpt>
      <trkpt lat="47.84278" lon="0.33673">
        <ele>172</ele>
        <time>2019-08-02T08:18:45Z</time>
      </trkpt>
      <trkpt lat="47.84276" lon="0.33684">
        <ele>174</ele>
        <time>2019-08-02T08:18:51Z</time>
      </trkpt>
      <trkpt lat="47.84271" lon="0.33723">
        <ele>169</ele>
        <time>2019-08-02T08:19:06Z</time>
      </trkpt>
      <trkpt lat="47.84271" lon="0.33729">
        <ele>168</ele>
        <time>2019-08-02T08:19:08Z</time>
      </trkpt>
      <trkpt lat="47.84271" lon="0.33733">
        <ele>168</ele>
        <time>2019-08-02T08:19:10Z</time>
      </trkpt>
      <trkpt lat="47.84268" lon="0.33748">
        <ele>167</ele>
        <time>2019-08-02T08:19:18Z</time>
      </trkpt>
      <trkpt lat="47.84266" lon="0.33753">
        <ele>165</ele>
        <time>2019-08-02T08:19:26Z</time>
      </trkpt>
      <trkpt lat="47.84267" lon="0.33759">
        <ele>166</ele>
        <time>2019-08-02T08:19:28Z</time>
      </trkpt>
      <trkpt lat="47.84265" lon="0.33764">
        <ele>166</ele>
        <time>2019-08-02T08:19:33Z</time>
      </trkpt>
      <trkpt lat="47.84262" lon="0.33768">
        <ele>167</ele>
        <time>2019-08-02T08:19:38Z</time>
      </trkpt>
      <trkpt lat="47.84259" lon="0.33774">
        <ele>171</ele>
        <time>2019-08-02T08:19:42Z</time>
      </trkpt>
      <trkpt lat="47.84259" lon="0.33779">
        <ele>172</ele>
        <time>2019-08-02T08:19:44Z</time>
      </trkpt>
      <trkpt lat="47.8426" lon="0.33802">
        <ele>168</ele>
        <time>2019-08-02T08:19:50Z</time>
      </trkpt>
      <trkpt lat="47.84257" lon="0.33812">
        <ele>166</ele>
        <time>2019-08-02T08:19:54Z</time>
      </trkpt>
      <trkpt lat="47.84254" lon="0.33822">
        <ele>167</ele>
        <time>2019-08-02T08:20:02Z</time>
      </trkpt>
      <trkpt lat="47.84252" lon="0.33827">
        <ele>168</ele>
        <time>2019-08-02T08:20:06Z</time>
      </trkpt>
      <trkpt lat="47.84252" lon="0.33832">
        <ele>169</ele>
        <time>2019-08-02T08:20:09Z</time>
      </trkpt>
      <trkpt lat="47.84246" lon="0.33848">
        <ele>167</ele>
        <time>2019-08-02T08:20:17Z</time>
      </trkpt>
      <trkpt lat="47.84244" lon="0.33856">
        <ele>165</ele>
        <time>2019-08-02T08:20:22Z</time>
      </trkpt>
      <trkpt lat="47.84243" lon="0.33862">
        <ele>165</ele>
        <time>2019-08-02T08:20:25Z</time>
      </trkpt>
      <trkpt lat="47.84241" lon="0.33867">
        <ele>166</ele>
        <time>2019-08-02T08:20:28Z</time>
      </trkpt>
      <trkpt lat="47.84235" lon="0.33882">
        <ele>165</ele>
        <time>2019-08-02T08:20:37Z</time>
      </trkpt>
      <trkpt lat="47.84232" lon="0.33907">
        <ele>166</ele>
        <time>2019-08-02T08:20:48Z</time>
      </trkpt>
      <trkpt lat="47.84235" lon="0.33931">
        <ele>165</ele>
        <time>2019-08-02T08:20:59Z</time>
      </trkpt>
      <trkpt lat="47.84235" lon="0.3396">
        <ele>164</ele>
        <time>2019-08-02T08:21:12Z</time>
      </trkpt>
      <trkpt lat="47.84236" lon="0.33966">
        <ele>167</ele>
        <time>2019-08-02T08:21:15Z</time>
      </trkpt>
      <trkpt lat="47.84238" lon="0.33971">
        <ele>167</ele>
        <time>2019-08-02T08:21:18Z</time>
      </trkpt>
      <trkpt lat="47.8424" lon="0.33986">
        <ele>166</ele>
        <time>2019-08-02T08:21:26Z</time>
      </trkpt>
      <trkpt lat="47.84236" lon="0.34009">
        <ele>168</ele>
        <time>2019-08-02T08:21:38Z</time>
      </trkpt>
      <trkpt lat="47.84237" lon="0.34017">
        <ele>169</ele>
        <time>2019-08-02T08:21:41Z</time>
      </trkpt>
      <trkpt lat="47.84239" lon="0.34021">
        <ele>170</ele>
        <time>2019-08-02T08:21:44Z</time>
      </trkpt>
      <trkpt lat="47.84241" lon="0.34028">
        <ele>170</ele>
        <time>2019-08-02T08:21:47Z</time>
      </trkpt>
      <trkpt lat="47.84241" lon="0.34033">
        <ele>170</ele>
        <time>2019-08-02T08:21:49Z</time>
      </trkpt>
      <trkpt lat="47.8424" lon="0.34038">
        <ele>170</ele>
        <time>2019-08-02T08:21:52Z</time>
      </trkpt>
      <trkpt lat="47.84239" lon="0.34044">
        <ele>168</ele>
        <time>2019-08-02T08:21:56Z</time>
      </trkpt>
      <trkpt lat="47.84241" lon="0.34052">
        <ele>168</ele>
        <time>2019-08-02T08:22:01Z</time>
      </trkpt>
      <trkpt lat="47.84243" lon="0.34059">
        <ele>167</ele>
        <time>2019-08-02T08:22:04Z</time>
      </trkpt>
      <trkpt lat="47.8424" lon="0.34064">
        <ele>167</ele>
        <time>2019-08-02T08:22:08Z</time>
      </trkpt>
      <trkpt lat="47.84241" lon="0.34076">
        <ele>165</ele>
        <time>2019-08-02T08:22:12Z</time>
      </trkpt>
      <trkpt lat="47.84238" lon="0.34092">
        <ele>165</ele>
        <time>2019-08-02T08:22:20Z</time>
      </trkpt>
      <trkpt lat="47.84237" lon="0.34103">
        <ele>165</ele>
        <time>2019-08-02T08:22:25Z</time>
      </trkpt>
      <trkpt lat="47.8424" lon="0.34109">
        <ele>166</ele>
        <time>2019-08-02T08:22:28Z</time>
      </trkpt>
      <trkpt lat="47.84242" lon="0.34116">
        <ele>167</ele>
        <time>2019-08-02T08:22:31Z</time>
      </trkpt>
      <trkpt lat="47.84244" lon="0.34122">
        <ele>168</ele>
        <time>2019-08-02T08:22:34Z</time>
      </trkpt>
      <trkpt lat="47.84246" lon="0.34126">
        <ele>170</ele>
        <time>2019-08-02T08:22:37Z</time>
      </trkpt>
      <trkpt lat="47.84245" lon="0.34132">
        <ele>169</ele>
        <time>2019-08-02T08:22:40Z</time>
      </trkpt>
      <trkpt lat="47.84241" lon="0.34141">
        <ele>167</ele>
        <time>2019-08-02T08:22:45Z</time>
      </trkpt>
      <trkpt lat="47.84244" lon="0.34151">
        <ele>168</ele>
        <time>2019-08-02T08:22:49Z</time>
      </trkpt>
      <trkpt lat="47.84242" lon="0.34178">
        <ele>165</ele>
        <time>2019-08-02T08:23:01Z</time>
      </trkpt>
      <trkpt lat="47.84243" lon="0.34182">
        <ele>164</ele>
        <time>2019-08-02T08:23:03Z</time>
      </trkpt>
      <trkpt lat="47.84243" lon="0.34187">
        <ele>164</ele>
        <time>2019-08-02T08:23:07Z</time>
      </trkpt>
      <trkpt lat="47.84243" lon="0.34193">
        <ele>164</ele>
        <time>2019-08-02T08:23:10Z</time>
      </trkpt>
      <trkpt lat="47.84242" lon="0.34198">
        <ele>164</ele>
        <time>2019-08-02T08:23:12Z</time>
      </trkpt>
      <trkpt lat="47.84244" lon="0.34215">
        <ele>165</ele>
        <time>2019-08-02T08:23:19Z</time>
      </trkpt>
      <trkpt lat="47.84244" lon="0.34228">
        <ele>166</ele>
        <time>2019-08-02T08:23:27Z</time>
      </trkpt>
      <trkpt lat="47.84243" lon="0.3425">
        <ele>158</ele>
        <time>2019-08-02T08:23:39Z</time>
      </trkpt>
      <trkpt lat="47.8424" lon="0.34317">
        <ele>155</ele>
        <time>2019-08-02T08:24:11Z</time>
      </trkpt>
      <trkpt lat="47.84241" lon="0.34334">
        <ele>155</ele>
        <time>2019-08-02T08:24:20Z</time>
      </trkpt>
      <trkpt lat="47.84239" lon="0.34369">
        <ele>154</ele>
        <time>2019-08-02T08:24:38Z</time>
      </trkpt>
      <trkpt lat="47.84238" lon="0.34409">
        <ele>155</ele>
        <time>2019-08-02T08:24:57Z</time>
      </trkpt>
      <trkpt lat="47.84237" lon="0.34425">
        <ele>146</ele>
        <time>2019-08-02T08:25:06Z</time>
      </trkpt>
      <trkpt lat="47.84237" lon="0.34436">
        <ele>147</ele>
        <time>2019-08-02T08:25:12Z</time>
      </trkpt>
      <trkpt lat="47.84236" lon="0.34449">
        <ele>72</ele>
        <time>2019-08-02T08:25:19Z</time>
      </trkpt>
      <trkpt lat="47.84235" lon="0.34511">
        <ele>155</ele>
        <time>2019-08-02T08:25:51Z</time>
      </trkpt>
      <trkpt lat="47.84234" lon="0.34529">
        <ele>155</ele>
        <time>2019-08-02T08:26:00Z</time>
      </trkpt>
      <trkpt lat="47.84232" lon="0.34567">
        <ele>146</ele>
        <time>2019-08-02T08:26:21Z</time>
      </trkpt>
      <trkpt lat="47.84231" lon="0.34583">
        <ele>159</ele>
        <time>2019-08-02T08:26:28Z</time>
      </trkpt>
      <trkpt lat="47.84231" lon="0.34604">
        <ele>159</ele>
        <time>2019-08-02T08:26:41Z</time>
      </trkpt>
      <trkpt lat="47.84228" lon="0.34667">
        <ele>162</ele>
        <time>2019-08-02T08:27:11Z</time>
      </trkpt>
      <trkpt lat="47.84223" lon="0.34711">
        <ele>152</ele>
        <time>2019-08-02T08:27:32Z</time>
      </trkpt>
      <trkpt lat="47.84216" lon="0.34773">
        <ele>162</ele>
        <time>2019-08-02T08:28:04Z</time>
      </trkpt>
      <trkpt lat="47.84215" lon="0.34785">
        <ele>162</ele>
        <time>2019-08-02T08:28:10Z</time>
      </trkpt>
      <trkpt lat="47.84214" lon="0.34796">
        <ele>163</ele>
        <time>2019-08-02T08:28:16Z</time>
      </trkpt>
      <trkpt lat="47.84212" lon="0.34812">
        <ele>164</ele>
        <time>2019-08-02T08:28:26Z</time>
      </trkpt>
      <trkpt lat="47.84212" lon="0.34828">
        <ele>164</ele>
        <time>2019-08-02T08:28:33Z</time>
      </trkpt>
      <trkpt lat="47.84213" lon="0.34837">
        <ele>164</ele>
        <time>2019-08-02T08:28:37Z</time>
      </trkpt>
      <trkpt lat="47.8422" lon="0.34911">
        <ele>161</ele>
        <time>2019-08-02T08:29:15Z</time>
      </trkpt>
      <trkpt lat="47.84218" lon="0.34916">
        <ele>157</ele>
        <time>2019-08-02T08:29:23Z</time>
      </trkpt>
      <trkpt lat="47.84218" lon="0.34921">
        <ele>144</ele>
        <time>2019-08-02T08:29:26Z</time>
      </trkpt>
      <trkpt lat="47.84219" lon="0.34926">
        <ele>144</ele>
        <time>2019-08-02T08:29:29Z</time>
      </trkpt>
      <trkpt lat="47.84222" lon="0.34964">
        <ele>147</ele>
        <time>2019-08-02T08:29:48Z</time>
      </trkpt>
      <trkpt lat="47.84225" lon="0.34985">
        <ele>151</ele>
        <time>2019-08-02T08:30:00Z</time>
      </trkpt>
      <trkpt lat="47.84225" lon="0.34991">
        <ele>152</ele>
        <time>2019-08-02T08:30:03Z</time>
      </trkpt>
      <trkpt lat="47.84223" lon="0.35019">
        <ele>151</ele>
        <time>2019-08-02T08:30:15Z</time>
      </trkpt>
      <trkpt lat="47.84222" lon="0.3503">
        <ele>152</ele>
        <time>2019-08-02T08:30:22Z</time>
      </trkpt>
      <trkpt lat="47.84221" lon="0.35035">
        <ele>152</ele>
        <time>2019-08-02T08:30:24Z</time>
      </trkpt>
      <trkpt lat="47.84222" lon="0.35045">
        <ele>152</ele>
        <time>2019-08-02T08:30:29Z</time>
      </trkpt>
      <trkpt lat="47.8422" lon="0.35058">
        <ele>152</ele>
        <time>2019-08-02T08:30:35Z</time>
      </trkpt>
      <trkpt lat="47.84221" lon="0.35068">
        <ele>151</ele>
        <time>2019-08-02T08:30:40Z</time>
      </trkpt>
      <trkpt lat="47.84219" lon="0.35074">
        <ele>142</ele>
        <time>2019-08-02T08:30:44Z</time>
      </trkpt>
      <trkpt lat="47.84219" lon="0.35091">
        <ele>138</ele>
        <time>2019-08-02T08:30:57Z</time>
      </trkpt>
      <trkpt lat="47.84219" lon="0.35096">
        <ele>139</ele>
        <time>2019-08-02T08:31:01Z</time>
      </trkpt>
      <trkpt lat="47.84219" lon="0.35101">
        <ele>142</ele>
        <time>2019-08-02T08:31:04Z</time>
      </trkpt>
      <trkpt lat="47.84218" lon="0.35106">
        <ele>143</ele>
        <time>2019-08-02T08:31:07Z</time>
      </trkpt>
      <trkpt lat="47.84219" lon="0.35134">
        <ele>145</ele>
        <time>2019-08-02T08:31:17Z</time>
      </trkpt>
      <trkpt lat="47.8422" lon="0.35149">
        <ele>146</ele>
        <time>2019-08-02T08:31:23Z</time>
      </trkpt>
      <trkpt lat="47.84221" lon="0.3518">
        <ele>137</ele>
        <time>2019-08-02T08:31:38Z</time>
      </trkpt>
      <trkpt lat="47.84222" lon="0.35196">
        <ele>143</ele>
        <time>2019-08-02T08:31:46Z</time>
      </trkpt>
      <trkpt lat="47.84222" lon="0.35202">
        <ele>142</ele>
        <time>2019-08-02T08:31:49Z</time>
      </trkpt>
      <trkpt lat="47.84221" lon="0.35207">
        <ele>141</ele>
        <time>2019-08-02T08:31:53Z</time>
      </trkpt>
      <trkpt lat="47.84222" lon="0.35223">
        <ele>145</ele>
        <time>2019-08-02T08:32:03Z</time>
      </trkpt>
      <trkpt lat="47.84223" lon="0.35229">
        <ele>144</ele>
        <time>2019-08-02T08:32:05Z</time>
      </trkpt>
      <trkpt lat="47.84225" lon="0.35244">
        <ele>137</ele>
        <time>2019-08-02T08:32:11Z</time>
      </trkpt>
      <trkpt lat="47.84226" lon="0.35262">
        <ele>146</ele>
        <time>2019-08-02T08:32:18Z</time>
      </trkpt>
      <trkpt lat="47.84226" lon="0.35268">
        <ele>144</ele>
        <time>2019-08-02T08:32:21Z</time>
      </trkpt>
      <trkpt lat="47.84231" lon="0.35306">
        <ele>141</ele>
        <time>2019-08-02T08:32:42Z</time>
      </trkpt>
      <trkpt lat="47.84232" lon="0.3531">
        <ele>141</ele>
        <time>2019-08-02T08:32:44Z</time>
      </trkpt>
      <trkpt lat="47.84234" lon="0.35325">
        <ele>142</ele>
        <time>2019-08-02T08:32:53Z</time>
      </trkpt>
      <trkpt lat="47.84237" lon="0.35329">
        <ele>141</ele>
        <time>2019-08-02T08:32:57Z</time>
      </trkpt>
      <trkpt lat="47.84237" lon="0.35335">
        <ele>140</ele>
        <time>2019-08-02T08:33:00Z</time>
      </trkpt>
      <trkpt lat="47.84237" lon="0.3534">
        <ele>139</ele>
        <time>2019-08-02T08:33:02Z</time>
      </trkpt>
      <trkpt lat="47.84239" lon="0.35369">
        <ele>135</ele>
        <time>2019-08-02T08:33:18Z</time>
      </trkpt>
      <trkpt lat="47.84245" lon="0.35412">
        <ele>165</ele>
        <time>2019-08-02T08:33:34Z</time>
      </trkpt>
      <trkpt lat="47.84253" lon="0.35472">
        <ele>164</ele>
        <time>2019-08-02T08:34:04Z</time>
      </trkpt>
      <trkpt lat="47.84262" lon="0.35528">
        <ele>159</ele>
        <time>2019-08-02T08:34:34Z</time>
      </trkpt>
      <trkpt lat="47.84263" lon="0.35533">
        <ele>161</ele>
        <time>2019-08-02T08:34:37Z</time>
      </trkpt>
      <trkpt lat="47.84269" lon="0.3557">
        <ele>163</ele>
        <time>2019-08-02T08:34:57Z</time>
      </trkpt>
      <trkpt lat="47.84272" lon="0.35574">
        <ele>163</ele>
        <time>2019-08-02T08:34:59Z</time>
      </trkpt>
      <trkpt lat="47.84274" lon="0.35579">
        <ele>163</ele>
        <time>2019-08-02T08:35:03Z</time>
      </trkpt>
      <trkpt lat="47.84276" lon="0.356">
        <ele>166</ele>
        <time>2019-08-02T08:35:16Z</time>
      </trkpt>
      <trkpt lat="47.84274" lon="0.35611">
        <ele>168</ele>
        <time>2019-08-02T08:35:21Z</time>
      </trkpt>
      <trkpt lat="47.84275" lon="0.35616">
        <ele>168</ele>
        <time>2019-08-02T08:35:23Z</time>
      </trkpt>
      <trkpt lat="47.84277" lon="0.35621">
        <ele>164</ele>
        <time>2019-08-02T08:35:25Z</time>
      </trkpt>
      <trkpt lat="47.84283" lon="0.35638">
        <ele>161</ele>
        <time>2019-08-02T08:35:32Z</time>
      </trkpt>
      <trkpt lat="47.84287" lon="0.35692">
        <ele>160</ele>
        <time>2019-08-02T08:35:59Z</time>
      </trkpt>
      <trkpt lat="47.84289" lon="0.35706">
        <ele>159</ele>
        <time>2019-08-02T08:36:05Z</time>
      </trkpt>
      <trkpt lat="47.8429" lon="0.35711">
        <ele>159</ele>
        <time>2019-08-02T08:36:07Z</time>
      </trkpt>
      <trkpt lat="47.84292" lon="0.35725">
        <ele>159</ele>
        <time>2019-08-02T08:36:16Z</time>
      </trkpt>
      <trkpt lat="47.84292" lon="0.3573">
        <ele>159</ele>
        <time>2019-08-02T08:36:19Z</time>
      </trkpt>
      <trkpt lat="47.84292" lon="0.35736">
        <ele>159</ele>
        <time>2019-08-02T08:36:22Z</time>
      </trkpt>
      <trkpt lat="47.84292" lon="0.35746">
        <ele>159</ele>
        <time>2019-08-02T08:36:26Z</time>
      </trkpt>
      <trkpt lat="47.84296" lon="0.3578">
        <ele>159</ele>
        <time>2019-08-02T08:36:41Z</time>
      </trkpt>
      <trkpt lat="47.84293" lon="0.35796">
        <ele>158</ele>
        <time>2019-08-02T08:36:50Z</time>
      </trkpt>
      <trkpt lat="47.84292" lon="0.35801">
        <ele>157</ele>
        <time>2019-08-02T08:36:53Z</time>
      </trkpt>
      <trkpt lat="47.84291" lon="0.35805">
        <ele>157</ele>
        <time>2019-08-02T08:36:55Z</time>
      </trkpt>
      <trkpt lat="47.84282" lon="0.35832">
        <ele>156</ele>
        <time>2019-08-02T08:37:09Z</time>
      </trkpt>
      <trkpt lat="47.8428" lon="0.35835">
        <ele>156</ele>
        <time>2019-08-02T08:37:11Z</time>
      </trkpt>
      <trkpt lat="47.84278" lon="0.35839">
        <ele>155</ele>
        <time>2019-08-02T08:37:14Z</time>
      </trkpt>
      <trkpt lat="47.84279" lon="0.35844">
        <ele>156</ele>
        <time>2019-08-02T08:37:17Z</time>
      </trkpt>
      <trkpt lat="47.84275" lon="0.35865">
        <ele>153</ele>
        <time>2019-08-02T08:37:29Z</time>
      </trkpt>
      <trkpt lat="47.84272" lon="0.35869">
        <ele>152</ele>
        <time>2019-08-02T08:37:32Z</time>
      </trkpt>
      <trkpt lat="47.8427" lon="0.35872">
        <ele>151</ele>
        <time>2019-08-02T08:37:35Z</time>
      </trkpt>
      <trkpt lat="47.84258" lon="0.35919">
        <ele>155</ele>
        <time>2019-08-02T08:37:56Z</time>
      </trkpt>
      <trkpt lat="47.84257" lon="0.35923">
        <ele>154</ele>
        <time>2019-08-02T08:37:58Z</time>
      </trkpt>
      <trkpt lat="47.8425" lon="0.35951">
        <ele>154</ele>
        <time>2019-08-02T08:38:14Z</time>
      </trkpt>
      <trkpt lat="47.84233" lon="0.36004">
        <ele>149</ele>
        <time>2019-08-02T08:38:45Z</time>
      </trkpt>
      <trkpt lat="47.84226" lon="0.36028">
        <ele>148</ele>
        <time>2019-08-02T08:38:55Z</time>
      </trkpt>
      <trkpt lat="47.84224" lon="0.36034">
        <ele>148</ele>
        <time>2019-08-02T08:38:58Z</time>
      </trkpt>
      <trkpt lat="47.84218" lon="0.36049">
        <ele>148</ele>
        <time>2019-08-02T08:39:04Z</time>
      </trkpt>
      <trkpt lat="47.84219" lon="0.36061">
        <ele>150</ele>
        <time>2019-08-02T08:39:12Z</time>
      </trkpt>
      <trkpt lat="47.84218" lon="0.36066">
        <ele>150</ele>
        <time>2019-08-02T08:39:14Z</time>
      </trkpt>
      <trkpt lat="47.84217" lon="0.36071">
        <ele>153</ele>
        <time>2019-08-02T08:39:16Z</time>
      </trkpt>
      <trkpt lat="47.84212" lon="0.36081">
        <ele>156</ele>
        <time>2019-08-02T08:39:23Z</time>
      </trkpt>
      <trkpt lat="47.84211" lon="0.36088">
        <ele>158</ele>
        <time>2019-08-02T08:39:27Z</time>
      </trkpt>
      <trkpt lat="47.84207" lon="0.36104">
        <ele>161</ele>
        <time>2019-08-02T08:39:35Z</time>
      </trkpt>
      <trkpt lat="47.84205" lon="0.36108">
        <ele>159</ele>
        <time>2019-08-02T08:39:38Z</time>
      </trkpt>
      <trkpt lat="47.84205" lon="0.36124">
        <ele>161</ele>
        <time>2019-08-02T08:39:45Z</time>
      </trkpt>
      <trkpt lat="47.84193" lon="0.36162">
        <ele>164</ele>
        <time>2019-08-02T08:40:00Z</time>
      </trkpt>
      <trkpt lat="47.84192" lon="0.36172">
        <ele>164</ele>
        <time>2019-08-02T08:40:05Z</time>
      </trkpt>
      <trkpt lat="47.84192" lon="0.36177">
        <ele>164</ele>
        <time>2019-08-02T08:40:09Z</time>
      </trkpt>
      <trkpt lat="47.84192" lon="0.36181">
        <ele>164</ele>
        <time>2019-08-02T08:40:12Z</time>
      </trkpt>
      <trkpt lat="47.84191" lon="0.36187">
        <ele>164</ele>
        <time>2019-08-02T08:40:26Z</time>
      </trkpt>
      <trkpt lat="47.84191" lon="0.36194">
        <ele>164</ele>
        <time>2019-08-02T08:40:29Z</time>
      </trkpt>
      <trkpt lat="47.84193" lon="0.36207">
        <ele>164</ele>
        <time>2019-08-02T08:40:33Z</time>
      </trkpt>
      <trkpt lat="47.84192" lon="0.36214">
        <ele>163</ele>
        <time>2019-08-02T08:40:36Z</time>
      </trkpt>
      <trkpt lat="47.84185" lon="0.36283">
        <ele>164</ele>
        <time>2019-08-02T08:41:14Z</time>
      </trkpt>
      <trkpt lat="47.84184" lon="0.36297">
        <ele>164</ele>
        <time>2019-08-02T08:41:21Z</time>
      </trkpt>
      <trkpt lat="47.84183" lon="0.36311">
        <ele>165</ele>
        <time>2019-08-02T08:41:30Z</time>
      </trkpt>
      <trkpt lat="47.84177" lon="0.36368">
        <ele>161</ele>
        <time>2019-08-02T08:41:56Z</time>
      </trkpt>
      <trkpt lat="47.84175" lon="0.36397">
        <ele>161</ele>
        <time>2019-08-02T08:42:12Z</time>
      </trkpt>
      <trkpt lat="47.84174" lon="0.36412">
        <ele>162</ele>
        <time>2019-08-02T08:42:19Z</time>
      </trkpt>
      <trkpt lat="47.84174" lon="0.36423">
        <ele>161</ele>
        <time>2019-08-02T08:42:26Z</time>
      </trkpt>
      <trkpt lat="47.84174" lon="0.36451">
        <ele>163</ele>
        <time>2019-08-02T08:42:42Z</time>
      </trkpt>
      <trkpt lat="47.84175" lon="0.36457">
        <ele>162</ele>
        <time>2019-08-02T08:42:45Z</time>
      </trkpt>
      <trkpt lat="47.8417" lon="0.36495">
        <ele>157</ele>
        <time>2019-08-02T08:43:04Z</time>
      </trkpt>
      <trkpt lat="47.84171" lon="0.36501">
        <ele>157</ele>
        <time>2019-08-02T08:43:06Z</time>
      </trkpt>
      <trkpt lat="47.84172" lon="0.36505">
        <ele>158</ele>
        <time>2019-08-02T08:43:09Z</time>
      </trkpt>
      <trkpt lat="47.84173" lon="0.36516">
        <ele>162</ele>
        <time>2019-08-02T08:43:14Z</time>
      </trkpt>
      <trkpt lat="47.84172" lon="0.36529">
        <ele>161</ele>
        <time>2019-08-02T08:43:20Z</time>
      </trkpt>
      <trkpt lat="47.84171" lon="0.36559">
        <ele>160</ele>
        <time>2019-08-02T08:43:33Z</time>
      </trkpt>
      <trkpt lat="47.84171" lon="0.36565">
        <ele>160</ele>
        <time>2019-08-02T08:43:36Z</time>
      </trkpt>
      <trkpt lat="47.8417" lon="0.36591">
        <ele>158</ele>
        <time>2019-08-02T08:43:48Z</time>
      </trkpt>
      <trkpt lat="47.84167" lon="0.36606">
        <ele>161</ele>
        <time>2019-08-02T08:43:56Z</time>
      </trkpt>
      <trkpt lat="47.8417" lon="0.3666">
        <ele>164</ele>
        <time>2019-08-02T08:44:25Z</time>
      </trkpt>
      <trkpt lat="47.84166" lon="0.36672">
        <ele>163</ele>
        <time>2019-08-02T08:44:32Z</time>
      </trkpt>
      <trkpt lat="47.84166" lon="0.36679">
        <ele>163</ele>
        <time>2019-08-02T08:44:35Z</time>
      </trkpt>
      <trkpt lat="47.84164" lon="0.36692">
        <ele>162</ele>
        <time>2019-08-02T08:44:41Z</time>
      </trkpt>
      <trkpt lat="47.84162" lon="0.36731">
        <ele>158</ele>
        <time>2019-08-02T08:44:59Z</time>
      </trkpt>
      <trkpt lat="47.84163" lon="0.36736">
        <ele>158</ele>
        <time>2019-08-02T08:45:02Z</time>
      </trkpt>
      <trkpt lat="47.84162" lon="0.36742">
        <ele>158</ele>
        <time>2019-08-02T08:45:05Z</time>
      </trkpt>
      <trkpt lat="47.84163" lon="0.36765">
        <ele>158</ele>
        <time>2019-08-02T08:45:15Z</time>
      </trkpt>
      <trkpt lat="47.84162" lon="0.36771">
        <ele>159</ele>
        <time>2019-08-02T08:45:18Z</time>
      </trkpt>
      <trkpt lat="47.84161" lon="0.36778">
        <ele>161</ele>
        <time>2019-08-02T08:45:21Z</time>
      </trkpt>
      <trkpt lat="47.84159" lon="0.36795">
        <ele>162</ele>
        <time>2019-08-02T08:45:29Z</time>
      </trkpt>
      <trkpt lat="47.84158" lon="0.368">
        <ele>159</ele>
        <time>2019-08-02T08:45:32Z</time>
      </trkpt>
      <trkpt lat="47.84157" lon="0.36805">
        <ele>155</ele>
        <time>2019-08-02T08:45:35Z</time>
      </trkpt>
      <trkpt lat="47.84156" lon="0.3681">
        <ele>156</ele>
        <time>2019-08-02T08:45:38Z</time>
      </trkpt>
      <trkpt lat="47.84155" lon="0.36821">
        <ele>157</ele>
        <time>2019-08-02T08:45:43Z</time>
      </trkpt>
      <trkpt lat="47.84153" lon="0.36846">
        <ele>156</ele>
        <time>2019-08-02T08:45:54Z</time>
      </trkpt>
      <trkpt lat="47.84153" lon="0.36851">
        <ele>154</ele>
        <time>2019-08-02T08:45:57Z</time>
      </trkpt>
      <trkpt lat="47.8415" lon="0.36913">
        <ele>157</ele>
        <time>2019-08-02T08:46:28Z</time>
      </trkpt>
      <trkpt lat="47.84149" lon="0.36917">
        <ele>157</ele>
        <time>2019-08-02T08:46:30Z</time>
      </trkpt>
      <trkpt lat="47.84149" lon="0.36923">
        <ele>157</ele>
        <time>2019-08-02T08:46:33Z</time>
      </trkpt>
      <trkpt lat="47.8415" lon="0.36929">
        <ele>157</ele>
        <time>2019-08-02T08:46:36Z</time>
      </trkpt>
      <trkpt lat="47.84151" lon="0.36939">
        <ele>157</ele>
        <time>2019-08-02T08:46:42Z</time>
      </trkpt>
      <trkpt lat="47.84148" lon="0.3695">
        <ele>157</ele>
        <time>2019-08-02T08:46:48Z</time>
      </trkpt>
      <trkpt lat="47.84151" lon="0.36968">
        <ele>159</ele>
        <time>2019-08-02T08:46:57Z</time>
      </trkpt>
      <trkpt lat="47.84147" lon="0.36978">
        <ele>161</ele>
        <time>2019-08-02T08:47:06Z</time>
      </trkpt>
      <trkpt lat="47.84147" lon="0.36985">
        <ele>160</ele>
        <time>2019-08-02T08:47:08Z</time>
      </trkpt>
      <trkpt lat="47.84147" lon="0.36991">
        <ele>161</ele>
        <time>2019-08-02T08:47:10Z</time>
      </trkpt>
      <trkpt lat="47.84151" lon="0.37003">
        <ele>161</ele>
        <time>2019-08-02T08:47:15Z</time>
      </trkpt>
      <trkpt lat="47.84148" lon="0.3702">
        <ele>160</ele>
        <time>2019-08-02T08:47:23Z</time>
      </trkpt>
      <trkpt lat="47.84147" lon="0.37035">
        <ele>161</ele>
        <time>2019-08-02T08:47:29Z</time>
      </trkpt>
      <trkpt lat="47.84143" lon="0.37054">
        <ele>159</ele>
        <time>2019-08-02T08:47:38Z</time>
      </trkpt>
      <trkpt lat="47.84141" lon="0.37064">
        <ele>157</ele>
        <time>2019-08-02T08:47:45Z</time>
      </trkpt>
      <trkpt lat="47.8414" lon="0.37101">
        <ele>155</ele>
        <time>2019-08-02T08:48:02Z</time>
      </trkpt>
      <trkpt lat="47.84138" lon="0.37116">
        <ele>156</ele>
        <time>2019-08-02T08:48:09Z</time>
      </trkpt>
      <trkpt lat="47.84138" lon="0.37171">
        <ele>156</ele>
        <time>2019-08-02T08:48:38Z</time>
      </trkpt>
      <trkpt lat="47.8414" lon="0.37187">
        <ele>153</ele>
        <time>2019-08-02T08:48:46Z</time>
      </trkpt>
      <trkpt lat="47.84135" lon="0.37201">
        <ele>156</ele>
        <time>2019-08-02T08:48:56Z</time>
      </trkpt>
      <trkpt lat="47.84137" lon="0.37205">
        <ele>156</ele>
        <time>2019-08-02T08:48:58Z</time>
      </trkpt>
      <trkpt lat="47.84138" lon="0.37221">
        <ele>154</ele>
        <time>2019-08-02T08:49:04Z</time>
      </trkpt>
      <trkpt lat="47.84139" lon="0.37244">
        <ele>152</ele>
        <time>2019-08-02T08:49:16Z</time>
      </trkpt>
      <trkpt lat="47.8414" lon="0.37252">
        <ele>153</ele>
        <time>2019-08-02T08:49:19Z</time>
      </trkpt>
      <trkpt lat="47.8414" lon="0.37258">
        <ele>155</ele>
        <time>2019-08-02T08:49:22Z</time>
      </trkpt>
      <trkpt lat="47.84138" lon="0.37262">
        <ele>156</ele>
        <time>2019-08-02T08:49:24Z</time>
      </trkpt>
      <trkpt lat="47.84136" lon="0.3731">
        <ele>158</ele>
        <time>2019-08-02T08:49:53Z</time>
      </trkpt>
      <trkpt lat="47.84135" lon="0.37319">
        <ele>159</ele>
        <time>2019-08-02T08:49:57Z</time>
      </trkpt>
      <trkpt lat="47.84135" lon="0.37324">
        <ele>159</ele>
        <time>2019-08-02T08:49:59Z</time>
      </trkpt>
      <trkpt lat="47.84137" lon="0.37331">
        <ele>159</ele>
        <time>2019-08-02T08:50:02Z</time>
      </trkpt>
      <trkpt lat="47.84138" lon="0.37336">
        <ele>159</ele>
        <time>2019-08-02T08:50:06Z</time>
      </trkpt>
      <trkpt lat="47.84136" lon="0.37348">
        <ele>165</ele>
        <time>2019-08-02T08:50:13Z</time>
      </trkpt>
      <trkpt lat="47.84134" lon="0.37352">
        <ele>166</ele>
        <time>2019-08-02T08:50:15Z</time>
      </trkpt>
      <trkpt lat="47.84132" lon="0.37357">
        <ele>166</ele>
        <time>2019-08-02T08:50:17Z</time>
      </trkpt>
      <trkpt lat="47.84132" lon="0.37369">
        <ele>166</ele>
        <time>2019-08-02T08:50:21Z</time>
      </trkpt>
      <trkpt lat="47.84135" lon="0.37387">
        <ele>165</ele>
        <time>2019-08-02T08:50:28Z</time>
      </trkpt>
      <trkpt lat="47.84134" lon="0.37392">
        <ele>166</ele>
        <time>2019-08-02T08:50:31Z</time>
      </trkpt>
      <trkpt lat="47.84132" lon="0.37395">
        <ele>167</ele>
        <time>2019-08-02T08:50:34Z</time>
      </trkpt>
      <trkpt lat="47.8413" lon="0.37398">
        <ele>166</ele>
        <time>2019-08-02T08:50:36Z</time>
      </trkpt>
      <trkpt lat="47.84128" lon="0.37402">
        <ele>166</ele>
        <time>2019-08-02T08:50:39Z</time>
      </trkpt>
      <trkpt lat="47.84124" lon="0.37416">
        <ele>166</ele>
        <time>2019-08-02T08:50:46Z</time>
      </trkpt>
      <trkpt lat="47.84123" lon="0.37421">
        <ele>166</ele>
        <time>2019-08-02T08:50:48Z</time>
      </trkpt>
      <trkpt lat="47.84122" lon="0.37425">
        <ele>167</ele>
        <time>2019-08-02T08:50:52Z</time>
      </trkpt>
      <trkpt lat="47.84122" lon="0.3743">
        <ele>167</ele>
        <time>2019-08-02T08:50:55Z</time>
      </trkpt>
      <trkpt lat="47.84123" lon="0.37442">
        <ele>168</ele>
        <time>2019-08-02T08:51:00Z</time>
      </trkpt>
      <trkpt lat="47.84124" lon="0.37447">
        <ele>167</ele>
        <time>2019-08-02T08:51:02Z</time>
      </trkpt>
      <trkpt lat="47.84124" lon="0.37461">
        <ele>165</ele>
        <time>2019-08-02T08:51:07Z</time>
      </trkpt>
      <trkpt lat="47.84125" lon="0.3747">
        <ele>165</ele>
        <time>2019-08-02T08:51:10Z</time>
      </trkpt>
      <trkpt lat="47.8413" lon="0.37476">
        <ele>165</ele>
        <time>2019-08-02T08:51:14Z</time>
      </trkpt>
      <trkpt lat="47.8413" lon="0.37481">
        <ele>164</ele>
        <time>2019-08-02T08:51:20Z</time>
      </trkpt>
      <trkpt lat="47.8414" lon="0.37487">
        <ele>165</ele>
        <time>2019-08-02T08:51:28Z</time>
      </trkpt>
      <trkpt lat="47.84144" lon="0.37487">
        <ele>165</ele>
        <time>2019-08-02T08:51:31Z</time>
      </trkpt>
      <trkpt lat="47.84149" lon="0.37484">
        <ele>165</ele>
        <time>2019-08-02T08:51:34Z</time>
      </trkpt>
      <trkpt lat="47.8418" lon="0.37482">
        <ele>163</ele>
        <time>2019-08-02T08:52:02Z</time>
      </trkpt>
      <trkpt lat="47.84184" lon="0.3748">
        <ele>164</ele>
        <time>2019-08-02T08:52:06Z</time>
      </trkpt>
      <trkpt lat="47.8422" lon="0.37461">
        <ele>162</ele>
        <time>2019-08-02T08:52:37Z</time>
      </trkpt>
      <trkpt lat="47.8424" lon="0.3746">
        <ele>161</ele>
        <time>2019-08-02T08:52:53Z</time>
      </trkpt>
      <trkpt lat="47.84249" lon="0.37457">
        <ele>161</ele>
        <time>2019-08-02T08:53:00Z</time>
      </trkpt>
      <trkpt lat="47.84258" lon="0.37455">
        <ele>162</ele>
        <time>2019-08-02T08:53:06Z</time>
      </trkpt>
      <trkpt lat="47.84298" lon="0.37446">
        <ele>162</ele>
        <time>2019-08-02T08:53:36Z</time>
      </trkpt>
      <trkpt lat="47.84307" lon="0.37442">
        <ele>163</ele>
        <time>2019-08-02T08:53:43Z</time>
      </trkpt>
      <trkpt lat="47.84343" lon="0.3743">
        <ele>160</ele>
        <time>2019-08-02T08:54:10Z</time>
      </trkpt>
      <trkpt lat="47.8435" lon="0.37429">
        <ele>160</ele>
        <time>2019-08-02T08:54:15Z</time>
      </trkpt>
      <trkpt lat="47.8437" lon="0.37424">
        <ele>157</ele>
        <time>2019-08-02T08:54:29Z</time>
      </trkpt>
      <trkpt lat="47.84373" lon="0.37423">
        <ele>157</ele>
        <time>2019-08-02T08:54:31Z</time>
      </trkpt>
      <trkpt lat="47.84413" lon="0.37413">
        <ele>151</ele>
        <time>2019-08-02T08:55:01Z</time>
      </trkpt>
      <trkpt lat="47.84425" lon="0.3741">
        <ele>151</ele>
        <time>2019-08-02T08:55:09Z</time>
      </trkpt>
      <trkpt lat="47.84428" lon="0.37409">
        <ele>151</ele>
        <time>2019-08-02T08:55:11Z</time>
      </trkpt>
      <trkpt lat="47.8443" lon="0.37406">
        <ele>151</ele>
        <time>2019-08-02T08:55:14Z</time>
      </trkpt>
      <trkpt lat="47.84454" lon="0.37396">
        <ele>154</ele>
        <time>2019-08-02T08:55:39Z</time>
      </trkpt>
      <trkpt lat="47.84465" lon="0.37394">
        <ele>154</ele>
        <time>2019-08-02T08:55:48Z</time>
      </trkpt>
      <trkpt lat="47.84473" lon="0.3739">
        <ele>154</ele>
        <time>2019-08-02T08:55:54Z</time>
      </trkpt>
      <trkpt lat="47.84481" lon="0.37386">
        <ele>154</ele>
        <time>2019-08-02T08:55:59Z</time>
      </trkpt>
      <trkpt lat="47.84492" lon="0.37384">
        <ele>155</ele>
        <time>2019-08-02T08:56:06Z</time>
      </trkpt>
      <trkpt lat="47.84495" lon="0.37384">
        <ele>156</ele>
        <time>2019-08-02T08:56:08Z</time>
      </trkpt>
      <trkpt lat="47.84515" lon="0.3738">
        <ele>157</ele>
        <time>2019-08-02T08:56:21Z</time>
      </trkpt>
      <trkpt lat="47.84524" lon="0.37375">
        <ele>157</ele>
        <time>2019-08-02T08:56:29Z</time>
      </trkpt>
      <trkpt lat="47.84533" lon="0.3737">
        <ele>159</ele>
        <time>2019-08-02T08:56:39Z</time>
      </trkpt>
      <trkpt lat="47.84552" lon="0.3737">
        <ele>157</ele>
        <time>2019-08-02T08:56:52Z</time>
      </trkpt>
      <trkpt lat="47.8457" lon="0.37361">
        <ele>156</ele>
        <time>2019-08-02T08:57:04Z</time>
      </trkpt>
      <trkpt lat="47.84579" lon="0.37359">
        <ele>158</ele>
        <time>2019-08-02T08:57:13Z</time>
      </trkpt>
      <trkpt lat="47.84598" lon="0.37355">
        <ele>157</ele>
        <time>2019-08-02T08:57:27Z</time>
      </trkpt>
      <trkpt lat="47.84607" lon="0.37353">
        <ele>156</ele>
        <time>2019-08-02T08:57:34Z</time>
      </trkpt>
      <trkpt lat="47.84626" lon="0.37348">
        <ele>159</ele>
        <time>2019-08-02T08:57:49Z</time>
      </trkpt>
      <trkpt lat="47.84635" lon="0.37343">
        <ele>158</ele>
        <time>2019-08-02T08:57:55Z</time>
      </trkpt>
      <trkpt lat="47.84644" lon="0.37338">
        <ele>160</ele>
        <time>2019-08-02T08:58:03Z</time>
      </trkpt>
      <trkpt lat="47.84653" lon="0.37334">
        <ele>161</ele>
        <time>2019-08-02T08:58:11Z</time>
      </trkpt>
      <trkpt lat="47.84689" lon="0.3732">
        <ele>167</ele>
        <time>2019-08-02T08:58:37Z</time>
      </trkpt>
      <trkpt lat="47.84718" lon="0.37313">
        <ele>163</ele>
        <time>2019-08-02T08:58:56Z</time>
      </trkpt>
      <trkpt lat="47.8473" lon="0.37312">
        <ele>162</ele>
        <time>2019-08-02T08:59:04Z</time>
      </trkpt>
      <trkpt lat="47.84758" lon="0.37301">
        <ele>163</ele>
        <time>2019-08-02T08:59:27Z</time>
      </trkpt>
      <trkpt lat="47.84763" lon="0.37301">
        <ele>164</ele>
        <time>2019-08-02T08:59:32Z</time>
      </trkpt>
      <trkpt lat="47.84767" lon="0.373">
        <ele>164</ele>
        <time>2019-08-02T08:59:35Z</time>
      </trkpt>
      <trkpt lat="47.84778" lon="0.37301">
        <ele>158</ele>
        <time>2019-08-02T08:59:45Z</time>
      </trkpt>
      <trkpt lat="47.8479" lon="0.3729">
        <ele>161</ele>
        <time>2019-08-02T08:59:55Z</time>
      </trkpt>
      <trkpt lat="47.84798" lon="0.37289">
        <ele>161</ele>
        <time>2019-08-02T09:00:07Z</time>
      </trkpt>
      <trkpt lat="47.84807" lon="0.37281">
        <ele>160</ele>
        <time>2019-08-02T09:00:16Z</time>
      </trkpt>
      <trkpt lat="47.84814" lon="0.37278">
        <ele>159</ele>
        <time>2019-08-02T09:00:24Z</time>
      </trkpt>
      <trkpt lat="47.84836" lon="0.37266">
        <ele>157</ele>
        <time>2019-08-02T09:00:39Z</time>
      </trkpt>
      <trkpt lat="47.84843" lon="0.37262">
        <ele>157</ele>
        <time>2019-08-02T09:00:43Z</time>
      </trkpt>
      <trkpt lat="47.84846" lon="0.3726">
        <ele>157</ele>
        <time>2019-08-02T09:00:45Z</time>
      </trkpt>
      <trkpt lat="47.84857" lon="0.37251">
        <ele>144</ele>
        <time>2019-08-02T09:00:53Z</time>
      </trkpt>
      <trkpt lat="47.84863" lon="0.37247">
        <ele>150</ele>
        <time>2019-08-02T09:00:58Z</time>
      </trkpt>
      <trkpt lat="47.84873" lon="0.37242">
        <ele>140</ele>
        <time>2019-08-02T09:01:07Z</time>
      </trkpt>
      <trkpt lat="47.84889" lon="0.37229">
        <ele>151</ele>
        <time>2019-08-02T09:01:21Z</time>
      </trkpt>
      <trkpt lat="47.84891" lon="0.37226">
        <ele>153</ele>
        <time>2019-08-02T09:01:24Z</time>
      </trkpt>
      <trkpt lat="47.84909" lon="0.3721">
        <ele>154</ele>
        <time>2019-08-02T09:01:39Z</time>
      </trkpt>
      <trkpt lat="47.84912" lon="0.37208">
        <ele>153</ele>
        <time>2019-08-02T09:01:42Z</time>
      </trkpt>
      <trkpt lat="47.84916" lon="0.37206">
        <ele>153</ele>
        <time>2019-08-02T09:01:45Z</time>
      </trkpt>
      <trkpt lat="47.8492" lon="0.37204">
        <ele>154</ele>
        <time>2019-08-02T09:01:48Z</time>
      </trkpt>
      <trkpt lat="47.84957" lon="0.37174">
        <ele>152</ele>
        <time>2019-08-02T09:02:19Z</time>
      </trkpt>
      <trkpt lat="47.84987" lon="0.37155">
        <ele>151</ele>
        <time>2019-08-02T09:02:42Z</time>
      </trkpt>
      <trkpt lat="47.84997" lon="0.37149">
        <ele>152</ele>
        <time>2019-08-02T09:02:50Z</time>
      </trkpt>
      <trkpt lat="47.85022" lon="0.37126">
        <ele>149</ele>
        <time>2019-08-02T09:03:10Z</time>
      </trkpt>
      <trkpt lat="47.85025" lon="0.37123">
        <ele>150</ele>
        <time>2019-08-02T09:03:13Z</time>
      </trkpt>
      <trkpt lat="47.85029" lon="0.37121">
        <ele>150</ele>
        <time>2019-08-02T09:03:16Z</time>
      </trkpt>
      <trkpt lat="47.85035" lon="0.37114">
        <ele>150</ele>
        <time>2019-08-02T09:03:21Z</time>
      </trkpt>
      <trkpt lat="47.85042" lon="0.37111">
        <ele>149</ele>
        <time>2019-08-02T09:03:26Z</time>
      </trkpt>
      <trkpt lat="47.85048" lon="0.37106">
        <ele>150</ele>
        <time>2019-08-02T09:03:31Z</time>
      </trkpt>
      <trkpt lat="47.85062" lon="0.371">
        <ele>155</ele>
        <time>2019-08-02T09:03:42Z</time>
      </trkpt>
      <trkpt lat="47.85066" lon="0.37099">
        <ele>156</ele>
        <time>2019-08-02T09:03:46Z</time>
      </trkpt>
      <trkpt lat="47.85071" lon="0.37095">
        <ele>154</ele>
        <time>2019-08-02T09:03:51Z</time>
      </trkpt>
      <trkpt lat="47.85078" lon="0.37088">
        <ele>153</ele>
        <time>2019-08-02T09:03:58Z</time>
      </trkpt>
      <trkpt lat="47.85091" lon="0.37083">
        <ele>157</ele>
        <time>2019-08-02T09:04:09Z</time>
      </trkpt>
      <trkpt lat="47.85093" lon="0.37081">
        <ele>158</ele>
        <time>2019-08-02T09:04:13Z</time>
      </trkpt>
      <trkpt lat="47.85116" lon="0.37073">
        <ele>157</ele>
        <time>2019-08-02T09:04:28Z</time>
      </trkpt>
      <trkpt lat="47.8512" lon="0.37071">
        <ele>157</ele>
        <time>2019-08-02T09:04:31Z</time>
      </trkpt>
      <trkpt lat="47.85122" lon="0.37068">
        <ele>158</ele>
        <time>2019-08-02T09:04:34Z</time>
      </trkpt>
      <trkpt lat="47.85125" lon="0.37067">
        <ele>157</ele>
        <time>2019-08-02T09:04:37Z</time>
      </trkpt>
      <trkpt lat="47.85132" lon="0.37067">
        <ele>154</ele>
        <time>2019-08-02T09:04:42Z</time>
      </trkpt>
      <trkpt lat="47.85138" lon="0.37061">
        <ele>155</ele>
        <time>2019-08-02T09:04:47Z</time>
      </trkpt>
      <trkpt lat="47.85166" lon="0.37042">
        <ele>159</ele>
        <time>2019-08-02T09:05:08Z</time>
      </trkpt>
      <trkpt lat="47.85173" lon="0.3704">
        <ele>157</ele>
        <time>2019-08-02T09:05:12Z</time>
      </trkpt>
      <trkpt lat="47.85182" lon="0.37042">
        <ele>152</ele>
        <time>2019-08-02T09:05:16Z</time>
      </trkpt>
      <trkpt lat="47.85186" lon="0.37044">
        <ele>150</ele>
        <time>2019-08-02T09:05:18Z</time>
      </trkpt>
      <trkpt lat="47.85198" lon="0.37047">
        <ele>146</ele>
        <time>2019-08-02T09:05:27Z</time>
      </trkpt>
      <trkpt lat="47.85208" lon="0.37044">
        <ele>148</ele>
        <time>2019-08-02T09:05:35Z</time>
      </trkpt>
      <trkpt lat="47.85219" lon="0.37044">
        <ele>149</ele>
        <time>2019-08-02T09:05:46Z</time>
      </trkpt>
      <trkpt lat="47.85226" lon="0.37042">
        <ele>148</ele>
        <time>2019-08-02T09:05:52Z</time>
      </trkpt>
      <trkpt lat="47.85233" lon="0.37036">
        <ele>149</ele>
        <time>2019-08-02T09:05:59Z</time>
      </trkpt>
      <trkpt lat="47.8526" lon="0.37032">
        <ele>154</ele>
        <time>2019-08-02T09:06:15Z</time>
      </trkpt>
      <trkpt lat="47.8527" lon="0.37028">
        <ele>152</ele>
        <time>2019-08-02T09:06:20Z</time>
      </trkpt>
      <trkpt lat="47.85279" lon="0.37022">
        <ele>147</ele>
        <time>2019-08-02T09:06:26Z</time>
      </trkpt>
      <trkpt lat="47.85287" lon="0.37014">
        <ele>144</ele>
        <time>2019-08-02T09:06:33Z</time>
      </trkpt>
      <trkpt lat="47.85296" lon="0.3701">
        <ele>141</ele>
        <time>2019-08-02T09:06:38Z</time>
      </trkpt>
      <trkpt lat="47.85297" lon="0.37009">
        <ele>137</ele>
        <time>2019-08-02T09:07:21Z</time>
      </trkpt>
      <trkpt lat="47.85316" lon="0.3701">
        <ele>138</ele>
        <time>2019-08-02T09:07:34Z</time>
      </trkpt>
      <trkpt lat="47.85325" lon="0.37007">
        <ele>142</ele>
        <time>2019-08-02T09:07:45Z</time>
      </trkpt>
      <trkpt lat="47.85335" lon="0.37005">
        <ele>146</ele>
        <time>2019-08-02T09:07:53Z</time>
      </trkpt>
      <trkpt lat="47.85343" lon="0.36999">
        <ele>146</ele>
        <time>2019-08-02T09:08:01Z</time>
      </trkpt>
      <trkpt lat="47.85354" lon="0.36999">
        <ele>148</ele>
        <time>2019-08-02T09:08:08Z</time>
      </trkpt>
      <trkpt lat="47.85363" lon="0.37001">
        <ele>145</ele>
        <time>2019-08-02T09:08:12Z</time>
      </trkpt>
      <trkpt lat="47.85374" lon="0.37006">
        <ele>140</ele>
        <time>2019-08-02T09:08:18Z</time>
      </trkpt>
      <trkpt lat="47.85377" lon="0.37006">
        <ele>138</ele>
        <time>2019-08-02T09:08:21Z</time>
      </trkpt>
      <trkpt lat="47.85421" lon="0.37017">
        <ele>136</ele>
        <time>2019-08-02T09:08:52Z</time>
      </trkpt>
      <trkpt lat="47.85426" lon="0.37011">
        <ele>136</ele>
        <time>2019-08-02T09:08:56Z</time>
      </trkpt>
      <trkpt lat="47.85432" lon="0.37002">
        <ele>136</ele>
        <time>2019-08-02T09:09:02Z</time>
      </trkpt>
      <trkpt lat="47.85439" lon="0.37">
        <ele>137</ele>
        <time>2019-08-02T09:09:07Z</time>
      </trkpt>
      <trkpt lat="47.85443" lon="0.36999">
        <ele>136</ele>
        <time>2019-08-02T09:09:09Z</time>
      </trkpt>
      <trkpt lat="47.85446" lon="0.36996">
        <ele>135</ele>
        <time>2019-08-02T09:09:12Z</time>
      </trkpt>
      <trkpt lat="47.85449" lon="0.36989">
        <ele>134</ele>
        <time>2019-08-02T09:09:16Z</time>
      </trkpt>
      <trkpt lat="47.8545" lon="0.36985">
        <ele>137</ele>
        <time>2019-08-02T09:09:20Z</time>
      </trkpt>
      <trkpt lat="47.85453" lon="0.36981">
        <ele>138</ele>
        <time>2019-08-02T09:09:24Z</time>
      </trkpt>
      <trkpt lat="47.85456" lon="0.36979">
        <ele>138</ele>
        <time>2019-08-02T09:09:28Z</time>
      </trkpt>
      <trkpt lat="47.85462" lon="0.36963">
        <ele>139</ele>
        <time>2019-08-02T09:09:35Z</time>
      </trkpt>
      <trkpt lat="47.85478" lon="0.36942">
        <ele>137</ele>
        <time>2019-08-02T09:09:49Z</time>
      </trkpt>
      <trkpt lat="47.85484" lon="0.36932">
        <ele>138</ele>
        <time>2019-08-02T09:09:56Z</time>
      </trkpt>
      <trkpt lat="47.85487" lon="0.36928">
        <ele>139</ele>
        <time>2019-08-02T09:09:59Z</time>
      </trkpt>
      <trkpt lat="47.85495" lon="0.36905">
        <ele>144</ele>
        <time>2019-08-02T09:10:16Z</time>
      </trkpt>
      <trkpt lat="47.85497" lon="0.36901">
        <ele>145</ele>
        <time>2019-08-02T09:10:20Z</time>
      </trkpt>
      <trkpt lat="47.85497" lon="0.36897">
        <ele>145</ele>
        <time>2019-08-02T09:10:23Z</time>
      </trkpt>
      <trkpt lat="47.85504" lon="0.36887">
        <ele>147</ele>
        <time>2019-08-02T09:10:33Z</time>
      </trkpt>
      <trkpt lat="47.85515" lon="0.3685">
        <ele>150</ele>
        <time>2019-08-02T09:10:50Z</time>
      </trkpt>
      <trkpt lat="47.85531" lon="0.36821">
        <ele>150</ele>
        <time>2019-08-02T09:11:07Z</time>
      </trkpt>
      <trkpt lat="47.85535" lon="0.36818">
        <ele>147</ele>
        <time>2019-08-02T09:11:09Z</time>
      </trkpt>
      <trkpt lat="47.85539" lon="0.36814">
        <ele>147</ele>
        <time>2019-08-02T09:11:12Z</time>
      </trkpt>
      <trkpt lat="47.85539" lon="0.36807">
        <ele>148</ele>
        <time>2019-08-02T09:11:15Z</time>
      </trkpt>
      <trkpt lat="47.85556" lon="0.36776">
        <ele>147</ele>
        <time>2019-08-02T09:11:35Z</time>
      </trkpt>
      <trkpt lat="47.85561" lon="0.36767">
        <ele>151</ele>
        <time>2019-08-02T09:11:41Z</time>
      </trkpt>
      <trkpt lat="47.85564" lon="0.36764">
        <ele>150</ele>
        <time>2019-08-02T09:11:44Z</time>
      </trkpt>
      <trkpt lat="47.85566" lon="0.36761">
        <ele>150</ele>
        <time>2019-08-02T09:11:46Z</time>
      </trkpt>
      <trkpt lat="47.85568" lon="0.36755">
        <ele>149</ele>
        <time>2019-08-02T09:11:49Z</time>
      </trkpt>
      <trkpt lat="47.85573" lon="0.36747">
        <ele>148</ele>
        <time>2019-08-02T09:11:54Z</time>
      </trkpt>
      <trkpt lat="47.85581" lon="0.36736">
        <ele>152</ele>
        <time>2019-08-02T09:12:01Z</time>
      </trkpt>
      <trkpt lat="47.85584" lon="0.36733">
        <ele>155</ele>
        <time>2019-08-02T09:12:04Z</time>
      </trkpt>
      <trkpt lat="47.8559" lon="0.36727">
        <ele>155</ele>
        <time>2019-08-02T09:12:10Z</time>
      </trkpt>
      <trkpt lat="47.85595" lon="0.3672">
        <ele>153</ele>
        <time>2019-08-02T09:12:14Z</time>
      </trkpt>
      <trkpt lat="47.85599" lon="0.36711">
        <ele>151</ele>
        <time>2019-08-02T09:12:20Z</time>
      </trkpt>
      <trkpt lat="47.85604" lon="0.36707">
        <ele>150</ele>
        <time>2019-08-02T09:12:23Z</time>
      </trkpt>
      <trkpt lat="47.8561" lon="0.36699">
        <ele>149</ele>
        <time>2019-08-02T09:12:29Z</time>
      </trkpt>
      <trkpt lat="47.85619" lon="0.36688">
        <ele>151</ele>
        <time>2019-08-02T09:12:41Z</time>
      </trkpt>
      <trkpt lat="47.85625" lon="0.36675">
        <ele>160</ele>
        <time>2019-08-02T09:12:55Z</time>
      </trkpt>
      <trkpt lat="47.85633" lon="0.36667">
        <ele>161</ele>
        <time>2019-08-02T09:13:02Z</time>
      </trkpt>
      <trkpt lat="47.85639" lon="0.36657">
        <ele>160</ele>
        <time>2019-08-02T09:13:06Z</time>
      </trkpt>
      <trkpt lat="47.85643" lon="0.3665">
        <ele>159</ele>
        <time>2019-08-02T09:13:10Z</time>
      </trkpt>
      <trkpt lat="47.85652" lon="0.36632">
        <ele>156</ele>
        <time>2019-08-02T09:13:21Z</time>
      </trkpt>
      <trkpt lat="47.85654" lon="0.36626">
        <ele>157</ele>
        <time>2019-08-02T09:13:25Z</time>
      </trkpt>
      <trkpt lat="47.85655" lon="0.36619">
        <ele>158</ele>
        <time>2019-08-02T09:13:28Z</time>
      </trkpt>
      <trkpt lat="47.85659" lon="0.36615">
        <ele>157</ele>
        <time>2019-08-02T09:13:31Z</time>
      </trkpt>
      <trkpt lat="47.85672" lon="0.36598">
        <ele>154</ele>
        <time>2019-08-02T09:13:42Z</time>
      </trkpt>
      <trkpt lat="47.85673" lon="0.36593">
        <ele>155</ele>
        <time>2019-08-02T09:13:47Z</time>
      </trkpt>
      <trkpt lat="47.85673" lon="0.36587">
        <ele>158</ele>
        <time>2019-08-02T09:13:50Z</time>
      </trkpt>
      <trkpt lat="47.85681" lon="0.36575">
        <ele>161</ele>
        <time>2019-08-02T09:14:00Z</time>
      </trkpt>
      <trkpt lat="47.85688" lon="0.36569">
        <ele>164</ele>
        <time>2019-08-02T09:14:06Z</time>
      </trkpt>
      <trkpt lat="47.85718" lon="0.36526">
        <ele>165</ele>
        <time>2019-08-02T09:14:34Z</time>
      </trkpt>
      <trkpt lat="47.85739" lon="0.36497">
        <ele>165</ele>
        <time>2019-08-02T09:14:54Z</time>
      </trkpt>
      <trkpt lat="47.85746" lon="0.36487">
        <ele>161</ele>
        <time>2019-08-02T09:15:00Z</time>
      </trkpt>
      <trkpt lat="47.85752" lon="0.36477">
        <ele>160</ele>
        <time>2019-08-02T09:15:05Z</time>
      </trkpt>
      <trkpt lat="47.8576" lon="0.36469">
        <ele>155</ele>
        <time>2019-08-02T09:15:10Z</time>
      </trkpt>
      <trkpt lat="47.85767" lon="0.3646">
        <ele>153</ele>
        <time>2019-08-02T09:15:15Z</time>
      </trkpt>
      <trkpt lat="47.85772" lon="0.36451">
        <ele>153</ele>
        <time>2019-08-02T09:15:21Z</time>
      </trkpt>
      <trkpt lat="47.85772" lon="0.36445">
        <ele>154</ele>
        <time>2019-08-02T09:15:24Z</time>
      </trkpt>
      <trkpt lat="47.8577" lon="0.36441">
        <ele>155</ele>
        <time>2019-08-02T09:15:27Z</time>
      </trkpt>
      <trkpt lat="47.85766" lon="0.36434">
        <ele>154</ele>
        <time>2019-08-02T09:15:31Z</time>
      </trkpt>
      <trkpt lat="47.85769" lon="0.36436">
        <ele>154</ele>
        <time>2019-08-02T09:16:02Z</time>
      </trkpt>
      <trkpt lat="47.85774" lon="0.36442">
        <ele>154</ele>
        <time>2019-08-02T09:16:07Z</time>
      </trkpt>
      <trkpt lat="47.85777" lon="0.36441">
        <ele>154</ele>
        <time>2019-08-02T09:16:10Z</time>
      </trkpt>
      <trkpt lat="47.85781" lon="0.36433">
        <ele>153</ele>
        <time>2019-08-02T09:16:15Z</time>
      </trkpt>
      <trkpt lat="47.85782" lon="0.36428">
        <ele>152</ele>
        <time>2019-08-02T09:16:18Z</time>
      </trkpt>
      <trkpt lat="47.85781" lon="0.36423">
        <ele>151</ele>
        <time>2019-08-02T09:16:22Z</time>
      </trkpt>
      <trkpt lat="47.85778" lon="0.36414">
        <ele>150</ele>
        <time>2019-08-02T09:16:26Z</time>
      </trkpt>
      <trkpt lat="47.85777" lon="0.36402">
        <ele>149</ele>
        <time>2019-08-02T09:16:33Z</time>
      </trkpt>
      <trkpt lat="47.85766" lon="0.36358">
        <ele>153</ele>
        <time>2019-08-02T09:16:53Z</time>
      </trkpt>
      <trkpt lat="47.85763" lon="0.36329">
        <ele>155</ele>
        <time>2019-08-02T09:17:06Z</time>
      </trkpt>
      <trkpt lat="47.85758" lon="0.363">
        <ele>153</ele>
        <time>2019-08-02T09:17:20Z</time>
      </trkpt>
      <trkpt lat="47.85762" lon="0.36289">
        <ele>151</ele>
        <time>2019-08-02T09:17:28Z</time>
      </trkpt>
      <trkpt lat="47.85764" lon="0.36275">
        <ele>152</ele>
        <time>2019-08-02T09:17:35Z</time>
      </trkpt>
      <trkpt lat="47.85758" lon="0.36224">
        <ele>151</ele>
        <time>2019-08-02T09:17:57Z</time>
      </trkpt>
      <trkpt lat="47.8576" lon="0.36213">
        <ele>144</ele>
        <time>2019-08-02T09:18:04Z</time>
      </trkpt>
      <trkpt lat="47.85762" lon="0.36209">
        <ele>148</ele>
        <time>2019-08-02T09:18:07Z</time>
      </trkpt>
      <trkpt lat="47.8576" lon="0.36191">
        <ele>151</ele>
        <time>2019-08-02T09:18:14Z</time>
      </trkpt>
      <trkpt lat="47.85758" lon="0.36187">
        <ele>150</ele>
        <time>2019-08-02T09:18:16Z</time>
      </trkpt>
      <trkpt lat="47.85757" lon="0.36183">
        <ele>150</ele>
        <time>2019-08-02T09:18:18Z</time>
      </trkpt>
      <trkpt lat="47.85754" lon="0.36164">
        <ele>150</ele>
        <time>2019-08-02T09:18:26Z</time>
      </trkpt>
      <trkpt lat="47.85752" lon="0.36154">
        <ele>141</ele>
        <time>2019-08-02T09:18:32Z</time>
      </trkpt>
      <trkpt lat="47.85753" lon="0.36149">
        <ele>142</ele>
        <time>2019-08-02T09:18:35Z</time>
      </trkpt>
      <trkpt lat="47.85754" lon="0.36144">
        <ele>142</ele>
        <time>2019-08-02T09:18:38Z</time>
      </trkpt>
      <trkpt lat="47.85754" lon="0.36139">
        <ele>140</ele>
        <time>2019-08-02T09:18:41Z</time>
      </trkpt>
      <trkpt lat="47.85753" lon="0.36123">
        <ele>143</ele>
        <time>2019-08-02T09:18:49Z</time>
      </trkpt>
      <trkpt lat="47.85752" lon="0.36111">
        <ele>142</ele>
        <time>2019-08-02T09:18:54Z</time>
      </trkpt>
      <trkpt lat="47.85751" lon="0.36091">
        <ele>140</ele>
        <time>2019-08-02T09:19:03Z</time>
      </trkpt>
      <trkpt lat="47.85752" lon="0.36086">
        <ele>138</ele>
        <time>2019-08-02T09:19:06Z</time>
      </trkpt>
      <trkpt lat="47.85753" lon="0.36061">
        <ele>135</ele>
        <time>2019-08-02T09:19:17Z</time>
      </trkpt>
      <trkpt lat="47.85752" lon="0.36054">
        <ele>136</ele>
        <time>2019-08-02T09:19:20Z</time>
      </trkpt>
      <trkpt lat="47.85752" lon="0.36027">
        <ele>140</ele>
        <time>2019-08-02T09:19:35Z</time>
      </trkpt>
      <trkpt lat="47.85752" lon="0.36014">
        <ele>142</ele>
        <time>2019-08-02T09:19:41Z</time>
      </trkpt>
      <trkpt lat="47.85752" lon="0.36">
        <ele>141</ele>
        <time>2019-08-02T09:19:49Z</time>
      </trkpt>
      <trkpt lat="47.85752" lon="0.35987">
        <ele>137</ele>
        <time>2019-08-02T09:19:58Z</time>
      </trkpt>
      <trkpt lat="47.85752" lon="0.35972">
        <ele>139</ele>
        <time>2019-08-02T09:20:10Z</time>
      </trkpt>
      <trkpt lat="47.85748" lon="0.35941">
        <ele>126</ele>
        <time>2019-08-02T09:20:21Z</time>
      </trkpt>
      <trkpt lat="47.85749" lon="0.35894">
        <ele>126</ele>
        <time>2019-08-02T09:20:27Z</time>
      </trkpt>
      <trkpt lat="47.85751" lon="0.3578">
        <ele>97</ele>
        <time>2019-08-02T09:22:13Z</time>
      </trkpt>
      <trkpt lat="47.85753" lon="0.35704">
        <ele>122</ele>
        <time>2019-08-02T09:22:44Z</time>
      </trkpt>
      <trkpt lat="47.85758" lon="0.35666">
        <ele>123</ele>
        <time>2019-08-02T09:22:46Z</time>
      </trkpt>
      <trkpt lat="47.85759" lon="0.35646">
        <ele>126</ele>
        <time>2019-08-02T09:22:50Z</time>
      </trkpt>
      <trkpt lat="47.85765" lon="0.35606">
        <ele>131</ele>
        <time>2019-08-02T09:23:10Z</time>
      </trkpt>
      <trkpt lat="47.85767" lon="0.35594">
        <ele>130</ele>
        <time>2019-08-02T09:23:16Z</time>
      </trkpt>
      <trkpt lat="47.85768" lon="0.35583">
        <ele>130</ele>
        <time>2019-08-02T09:23:22Z</time>
      </trkpt>
      <trkpt lat="47.85772" lon="0.3555">
        <ele>128</ele>
        <time>2019-08-02T09:23:39Z</time>
      </trkpt>
      <trkpt lat="47.85775" lon="0.35535">
        <ele>130</ele>
        <time>2019-08-02T09:23:47Z</time>
      </trkpt>
      <trkpt lat="47.85776" lon="0.35523">
        <ele>130</ele>
        <time>2019-08-02T09:23:52Z</time>
      </trkpt>
      <trkpt lat="47.85787" lon="0.35489">
        <ele>120</ele>
        <time>2019-08-02T09:24:36Z</time>
      </trkpt>
      <trkpt lat="47.85792" lon="0.35463">
        <ele>95</ele>
        <time>2019-08-02T09:24:38Z</time>
      </trkpt>
      <trkpt lat="47.85804" lon="0.35432">
        <ele>96</ele>
        <time>2019-08-02T09:24:48Z</time>
      </trkpt>
      <trkpt lat="47.85809" lon="0.35421">
        <ele>97</ele>
        <time>2019-08-02T09:24:54Z</time>
      </trkpt>
      <trkpt lat="47.8581" lon="0.3541">
        <ele>99</ele>
        <time>2019-08-02T09:25:00Z</time>
      </trkpt>
      <trkpt lat="47.85813" lon="0.35403">
        <ele>100</ele>
        <time>2019-08-02T09:25:03Z</time>
      </trkpt>
      <trkpt lat="47.85819" lon="0.35384">
        <ele>107</ele>
        <time>2019-08-02T09:25:11Z</time>
      </trkpt>
      <trkpt lat="47.8582" lon="0.3538">
        <ele>111</ele>
        <time>2019-08-02T09:25:13Z</time>
      </trkpt>
      <trkpt lat="47.85821" lon="0.35371">
        <ele>114</ele>
        <time>2019-08-02T09:25:17Z</time>
      </trkpt>
      <trkpt lat="47.85821" lon="0.35366">
        <ele>115</ele>
        <time>2019-08-02T09:25:19Z</time>
      </trkpt>
      <trkpt lat="47.8582" lon="0.3536">
        <ele>116</ele>
        <time>2019-08-02T09:25:22Z</time>
      </trkpt>
      <trkpt lat="47.85817" lon="0.35353">
        <ele>120</ele>
        <time>2019-08-02T09:25:26Z</time>
      </trkpt>
      <trkpt lat="47.85804" lon="0.35335">
        <ele>126</ele>
        <time>2019-08-02T09:25:37Z</time>
      </trkpt>
      <trkpt lat="47.85779" lon="0.35286">
        <ele>129</ele>
        <time>2019-08-02T09:26:07Z</time>
      </trkpt>
      <trkpt lat="47.85749" lon="0.3524">
        <ele>127</ele>
        <time>2019-08-02T09:26:39Z</time>
      </trkpt>
      <trkpt lat="47.85739" lon="0.3523">
        <ele>127</ele>
        <time>2019-08-02T09:26:48Z</time>
      </trkpt>
      <trkpt lat="47.85736" lon="0.35228">
        <ele>127</ele>
        <time>2019-08-02T09:26:51Z</time>
      </trkpt>
      <trkpt lat="47.85729" lon="0.35225">
        <ele>127</ele>
        <time>2019-08-02T09:26:56Z</time>
      </trkpt>
      <trkpt lat="47.85678" lon="0.35211">
        <ele>96</ele>
        <time>2019-08-02T09:28:50Z</time>
      </trkpt>
      <trkpt lat="47.85661" lon="0.35194">
        <ele>99</ele>
        <time>2019-08-02T09:29:01Z</time>
      </trkpt>
      <trkpt lat="47.85649" lon="0.35165">
        <ele>101</ele>
        <time>2019-08-02T09:29:08Z</time>
      </trkpt>
      <trkpt lat="47.85633" lon="0.35096">
        <ele>103</ele>
        <time>2019-08-02T09:29:11Z</time>
      </trkpt>
      <trkpt lat="47.85625" lon="0.35063">
        <ele>109</ele>
        <time>2019-08-02T09:29:15Z</time>
      </trkpt>
      <trkpt lat="47.85619" lon="0.3504">
        <ele>118</ele>
        <time>2019-08-02T09:29:19Z</time>
      </trkpt>
      <trkpt lat="47.85617" lon="0.35031">
        <ele>121</ele>
        <time>2019-08-02T09:29:23Z</time>
      </trkpt>
      <trkpt lat="47.85616" lon="0.35024">
        <ele>122</ele>
        <time>2019-08-02T09:29:27Z</time>
      </trkpt>
      <trkpt lat="47.85615" lon="0.35013">
        <ele>124</ele>
        <time>2019-08-02T09:29:36Z</time>
      </trkpt>
      <trkpt lat="47.85613" lon="0.35007">
        <ele>125</ele>
        <time>2019-08-02T09:29:39Z</time>
      </trkpt>
      <trkpt lat="47.85609" lon="0.34986">
        <ele>127</ele>
        <time>2019-08-02T09:29:51Z</time>
      </trkpt>
      <trkpt lat="47.85605" lon="0.34962">
        <ele>126</ele>
        <time>2019-08-02T09:30:04Z</time>
      </trkpt>
      <trkpt lat="47.85604" lon="0.34952">
        <ele>127</ele>
        <time>2019-08-02T09:30:09Z</time>
      </trkpt>
      <trkpt lat="47.85604" lon="0.34948">
        <ele>127</ele>
        <time>2019-08-02T09:30:12Z</time>
      </trkpt>
      <trkpt lat="47.85601" lon="0.34938">
        <ele>127</ele>
        <time>2019-08-02T09:30:18Z</time>
      </trkpt>
      <trkpt lat="47.856" lon="0.34932">
        <ele>127</ele>
        <time>2019-08-02T09:30:21Z</time>
      </trkpt>
      <trkpt lat="47.85597" lon="0.34917">
        <ele>127</ele>
        <time>2019-08-02T09:30:28Z</time>
      </trkpt>
      <trkpt lat="47.85591" lon="0.34901">
        <ele>127</ele>
        <time>2019-08-02T09:30:37Z</time>
      </trkpt>
      <trkpt lat="47.85584" lon="0.34892">
        <ele>127</ele>
        <time>2019-08-02T09:30:44Z</time>
      </trkpt>
      <trkpt lat="47.85583" lon="0.34882">
        <ele>127</ele>
        <time>2019-08-02T09:30:48Z</time>
      </trkpt>
      <trkpt lat="47.85583" lon="0.34873">
        <ele>127</ele>
        <time>2019-08-02T09:30:52Z</time>
      </trkpt>
      <trkpt lat="47.85584" lon="0.34868">
        <ele>127</ele>
        <time>2019-08-02T09:30:55Z</time>
      </trkpt>
      <trkpt lat="47.85602" lon="0.34827">
        <ele>127</ele>
        <time>2019-08-02T09:31:19Z</time>
      </trkpt>
      <trkpt lat="47.85601" lon="0.34823">
        <ele>128</ele>
        <time>2019-08-02T09:31:23Z</time>
      </trkpt>
      <trkpt lat="47.85595" lon="0.34826">
        <ele>128</ele>
        <time>2019-08-02T09:31:29Z</time>
      </trkpt>
      <trkpt lat="47.85551" lon="0.34843">
        <ele>136</ele>
        <time>2019-08-02T09:32:01Z</time>
      </trkpt>
      <trkpt lat="47.85544" lon="0.34846">
        <ele>135</ele>
        <time>2019-08-02T09:32:06Z</time>
      </trkpt>
      <trkpt lat="47.85528" lon="0.34853">
        <ele>134</ele>
        <time>2019-08-02T09:32:18Z</time>
      </trkpt>
      <trkpt lat="47.85524" lon="0.34854">
        <ele>133</ele>
        <time>2019-08-02T09:32:21Z</time>
      </trkpt>
      <trkpt lat="47.85521" lon="0.34855">
        <ele>135</ele>
        <time>2019-08-02T09:32:24Z</time>
      </trkpt>
      <trkpt lat="47.855" lon="0.34859">
        <ele>136</ele>
        <time>2019-08-02T09:32:39Z</time>
      </trkpt>
      <trkpt lat="47.85486" lon="0.34864">
        <ele>137</ele>
        <time>2019-08-02T09:32:50Z</time>
      </trkpt>
      <trkpt lat="47.85479" lon="0.34865">
        <ele>136</ele>
        <time>2019-08-02T09:32:55Z</time>
      </trkpt>
      <trkpt lat="47.85472" lon="0.3487">
        <ele>136</ele>
        <time>2019-08-02T09:33:01Z</time>
      </trkpt>
      <trkpt lat="47.8546" lon="0.34867">
        <ele>138</ele>
        <time>2019-08-02T09:33:11Z</time>
      </trkpt>
      <trkpt lat="47.85446" lon="0.34864">
        <ele>138</ele>
        <time>2019-08-02T09:33:21Z</time>
      </trkpt>
      <trkpt lat="47.8544" lon="0.34863">
        <ele>137</ele>
        <time>2019-08-02T09:33:25Z</time>
      </trkpt>
      <trkpt lat="47.85433" lon="0.34861">
        <ele>136</ele>
        <time>2019-08-02T09:33:30Z</time>
      </trkpt>
      <trkpt lat="47.85416" lon="0.34854">
        <ele>133</ele>
        <time>2019-08-02T09:33:44Z</time>
      </trkpt>
      <trkpt lat="47.854" lon="0.34844">
        <ele>137</ele>
        <time>2019-08-02T09:33:57Z</time>
      </trkpt>
      <trkpt lat="47.85382" lon="0.34837">
        <ele>137</ele>
        <time>2019-08-02T09:34:12Z</time>
      </trkpt>
      <trkpt lat="47.85378" lon="0.34835">
        <ele>135</ele>
        <time>2019-08-02T09:34:15Z</time>
      </trkpt>
      <trkpt lat="47.85335" lon="0.34834">
        <ele>67</ele>
        <time>2019-08-02T09:34:48Z</time>
      </trkpt>
      <trkpt lat="47.85332" lon="0.34832">
        <ele>131</ele>
        <time>2019-08-02T09:34:50Z</time>
      </trkpt>
      <trkpt lat="47.85318" lon="0.34831">
        <ele>125</ele>
        <time>2019-08-02T09:35:00Z</time>
      </trkpt>
      <trkpt lat="47.85314" lon="0.34831">
        <ele>127</ele>
        <time>2019-08-02T09:35:03Z</time>
      </trkpt>
      <trkpt lat="47.85298" lon="0.34834">
        <ele>131</ele>
        <time>2019-08-02T09:35:16Z</time>
      </trkpt>
      <trkpt lat="47.8527" lon="0.34829">
        <ele>129</ele>
        <time>2019-08-02T09:35:32Z</time>
      </trkpt>
      <trkpt lat="47.85267" lon="0.3483">
        <ele>128</ele>
        <time>2019-08-02T09:35:35Z</time>
      </trkpt>
      <trkpt lat="47.85263" lon="0.34832">
        <ele>132</ele>
        <time>2019-08-02T09:35:39Z</time>
      </trkpt>
      <trkpt lat="47.8526" lon="0.34831">
        <ele>133</ele>
        <time>2019-08-02T09:35:42Z</time>
      </trkpt>
      <trkpt lat="47.85256" lon="0.34833">
        <ele>132</ele>
        <time>2019-08-02T09:35:47Z</time>
      </trkpt>
      <trkpt lat="47.85251" lon="0.34831">
        <ele>133</ele>
        <time>2019-08-02T09:35:50Z</time>
      </trkpt>
      <trkpt lat="47.85248" lon="0.3483">
        <ele>136</ele>
        <time>2019-08-02T09:35:52Z</time>
      </trkpt>
      <trkpt lat="47.85245" lon="0.34828">
        <ele>135</ele>
        <time>2019-08-02T09:35:56Z</time>
      </trkpt>
      <trkpt lat="47.85238" lon="0.34828">
        <ele>138</ele>
        <time>2019-08-02T09:36:00Z</time>
      </trkpt>
      <trkpt lat="47.85234" lon="0.34828">
        <ele>139</ele>
        <time>2019-08-02T09:36:03Z</time>
      </trkpt>
      <trkpt lat="47.8522" lon="0.34829">
        <ele>136</ele>
        <time>2019-08-02T09:36:13Z</time>
      </trkpt>
      <trkpt lat="47.85215" lon="0.3483">
        <ele>135</ele>
        <time>2019-08-02T09:36:17Z</time>
      </trkpt>
      <trkpt lat="47.85206" lon="0.34836">
        <ele>135</ele>
        <time>2019-08-02T09:36:23Z</time>
      </trkpt>
      <trkpt lat="47.85202" lon="0.34835">
        <ele>136</ele>
        <time>2019-08-02T09:36:27Z</time>
      </trkpt>
      <trkpt lat="47.85198" lon="0.34837">
        <ele>135</ele>
        <time>2019-08-02T09:36:31Z</time>
      </trkpt>
      <trkpt lat="47.85193" lon="0.34837">
        <ele>133</ele>
        <time>2019-08-02T09:36:34Z</time>
      </trkpt>
      <trkpt lat="47.85149" lon="0.34847">
        <ele>133</ele>
        <time>2019-08-02T09:37:05Z</time>
      </trkpt>
      <trkpt lat="47.85136" lon="0.34853">
        <ele>147</ele>
        <time>2019-08-02T09:37:17Z</time>
      </trkpt>
      <trkpt lat="47.85127" lon="0.34851">
        <ele>150</ele>
        <time>2019-08-02T09:37:24Z</time>
      </trkpt>
      <trkpt lat="47.85103" lon="0.34855">
        <ele>153</ele>
        <time>2019-08-02T09:37:42Z</time>
      </trkpt>
      <trkpt lat="47.85096" lon="0.34862">
        <ele>135</ele>
        <time>2019-08-02T09:37:48Z</time>
      </trkpt>
      <trkpt lat="47.85087" lon="0.34864">
        <ele>134</ele>
        <time>2019-08-02T09:37:55Z</time>
      </trkpt>
      <trkpt lat="47.8508" lon="0.34864">
        <ele>150</ele>
        <time>2019-08-02T09:38:01Z</time>
      </trkpt>
      <trkpt lat="47.85075" lon="0.34862">
        <ele>137</ele>
        <time>2019-08-02T09:38:04Z</time>
      </trkpt>
      <trkpt lat="47.8507" lon="0.34863">
        <ele>131</ele>
        <time>2019-08-02T09:38:07Z</time>
      </trkpt>
      <trkpt lat="47.85058" lon="0.34864">
        <ele>124</ele>
        <time>2019-08-02T09:38:14Z</time>
      </trkpt>
      <trkpt lat="47.85055" lon="0.34864">
        <ele>122</ele>
        <time>2019-08-02T09:38:16Z</time>
      </trkpt>
      <trkpt lat="47.85045" lon="0.34868">
        <ele>122</ele>
        <time>2019-08-02T09:38:22Z</time>
      </trkpt>
      <trkpt lat="47.85042" lon="0.34869">
        <ele>122</ele>
        <time>2019-08-02T09:38:24Z</time>
      </trkpt>
      <trkpt lat="47.85025" lon="0.34872">
        <ele>114</ele>
        <time>2019-08-02T09:38:36Z</time>
      </trkpt>
      <trkpt lat="47.85021" lon="0.3487">
        <ele>113</ele>
        <time>2019-08-02T09:38:39Z</time>
      </trkpt>
      <trkpt lat="47.85018" lon="0.34866">
        <ele>120</ele>
        <time>2019-08-02T09:38:42Z</time>
      </trkpt>
      <trkpt lat="47.85017" lon="0.34861">
        <ele>122</ele>
        <time>2019-08-02T09:38:45Z</time>
      </trkpt>
      <trkpt lat="47.85014" lon="0.34844">
        <ele>146</ele>
        <time>2019-08-02T09:38:54Z</time>
      </trkpt>
      <trkpt lat="47.85016" lon="0.34816">
        <ele>147</ele>
        <time>2019-08-02T09:39:08Z</time>
      </trkpt>
      <trkpt lat="47.85014" lon="0.34799">
        <ele>132</ele>
        <time>2019-08-02T09:39:17Z</time>
      </trkpt>
      <trkpt lat="47.8501" lon="0.34789">
        <ele>128</ele>
        <time>2019-08-02T09:39:23Z</time>
      </trkpt>
      <trkpt lat="47.85005" lon="0.34758">
        <ele>124</ele>
        <time>2019-08-02T09:39:38Z</time>
      </trkpt>
      <trkpt lat="47.85005" lon="0.34753">
        <ele>124</ele>
        <time>2019-08-02T09:39:41Z</time>
      </trkpt>
      <trkpt lat="47.85004" lon="0.34749">
        <ele>123</ele>
        <time>2019-08-02T09:39:43Z</time>
      </trkpt>
      <trkpt lat="47.85003" lon="0.34745">
        <ele>126</ele>
        <time>2019-08-02T09:39:45Z</time>
      </trkpt>
      <trkpt lat="47.85001" lon="0.34735">
        <ele>136</ele>
        <time>2019-08-02T09:39:49Z</time>
      </trkpt>
      <trkpt lat="47.84994" lon="0.34718">
        <ele>138</ele>
        <time>2019-08-02T09:40:02Z</time>
      </trkpt>
      <trkpt lat="47.84985" lon="0.34713">
        <ele>139</ele>
        <time>2019-08-02T09:40:07Z</time>
      </trkpt>
      <trkpt lat="47.84978" lon="0.34707">
        <ele>141</ele>
        <time>2019-08-02T09:40:12Z</time>
      </trkpt>
      <trkpt lat="47.84975" lon="0.34703">
        <ele>134</ele>
        <time>2019-08-02T09:40:14Z</time>
      </trkpt>
      <trkpt lat="47.84971" lon="0.34692">
        <ele>133</ele>
        <time>2019-08-02T09:40:20Z</time>
      </trkpt>
      <trkpt lat="47.84967" lon="0.34682">
        <ele>139</ele>
        <time>2019-08-02T09:40:25Z</time>
      </trkpt>
      <trkpt lat="47.84965" lon="0.34671">
        <ele>140</ele>
        <time>2019-08-02T09:40:31Z</time>
      </trkpt>
      <trkpt lat="47.84965" lon="0.34666">
        <ele>135</ele>
        <time>2019-08-02T09:40:34Z</time>
      </trkpt>
      <trkpt lat="47.84964" lon="0.34661">
        <ele>131</ele>
        <time>2019-08-02T09:40:38Z</time>
      </trkpt>
      <trkpt lat="47.84959" lon="0.34647">
        <ele>133</ele>
        <time>2019-08-02T09:40:44Z</time>
      </trkpt>
      <trkpt lat="47.84958" lon="0.34641">
        <ele>138</ele>
        <time>2019-08-02T09:40:47Z</time>
      </trkpt>
      <trkpt lat="47.84947" lon="0.34581">
        <ele>141</ele>
        <time>2019-08-02T09:41:18Z</time>
      </trkpt>
      <trkpt lat="47.84945" lon="0.34577">
        <ele>141</ele>
        <time>2019-08-02T09:41:21Z</time>
      </trkpt>
      <trkpt lat="47.84942" lon="0.34556">
        <ele>140</ele>
        <time>2019-08-02T09:41:33Z</time>
      </trkpt>
      <trkpt lat="47.8494" lon="0.34551">
        <ele>140</ele>
        <time>2019-08-02T09:41:36Z</time>
      </trkpt>
      <trkpt lat="47.84931" lon="0.34517">
        <ele>144</ele>
        <time>2019-08-02T09:41:54Z</time>
      </trkpt>
      <trkpt lat="47.84925" lon="0.345">
        <ele>145</ele>
        <time>2019-08-02T09:42:04Z</time>
      </trkpt>
      <trkpt lat="47.84921" lon="0.34473">
        <ele>147</ele>
        <time>2019-08-02T09:42:20Z</time>
      </trkpt>
      <trkpt lat="47.8492" lon="0.34456">
        <ele>146</ele>
        <time>2019-08-02T09:42:29Z</time>
      </trkpt>
      <trkpt lat="47.84923" lon="0.34441">
        <ele>149</ele>
        <time>2019-08-02T09:42:37Z</time>
      </trkpt>
      <trkpt lat="47.84925" lon="0.34436">
        <ele>149</ele>
        <time>2019-08-02T09:42:40Z</time>
      </trkpt>
      <trkpt lat="47.84928" lon="0.34434">
        <ele>149</ele>
        <time>2019-08-02T09:42:42Z</time>
      </trkpt>
      <trkpt lat="47.84931" lon="0.34432">
        <ele>148</ele>
        <time>2019-08-02T09:42:44Z</time>
      </trkpt>
      <trkpt lat="47.84944" lon="0.34409">
        <ele>149</ele>
        <time>2019-08-02T09:43:03Z</time>
      </trkpt>
      <trkpt lat="47.84955" lon="0.34392">
        <ele>147</ele>
        <time>2019-08-02T09:43:15Z</time>
      </trkpt>
      <trkpt lat="47.84963" lon="0.34382">
        <ele>152</ele>
        <time>2019-08-02T09:43:26Z</time>
      </trkpt>
      <trkpt lat="47.84969" lon="0.34377">
        <ele>153</ele>
        <time>2019-08-02T09:43:30Z</time>
      </trkpt>
      <trkpt lat="47.84978" lon="0.34363">
        <ele>153</ele>
        <time>2019-08-02T09:43:42Z</time>
      </trkpt>
      <trkpt lat="47.84981" lon="0.34359">
        <ele>153</ele>
        <time>2019-08-02T09:43:45Z</time>
      </trkpt>
      <trkpt lat="47.84989" lon="0.34351">
        <ele>155</ele>
        <time>2019-08-02T09:43:53Z</time>
      </trkpt>
      <trkpt lat="47.85009" lon="0.34329">
        <ele>157</ele>
        <time>2019-08-02T09:44:13Z</time>
      </trkpt>
      <trkpt lat="47.85016" lon="0.34318">
        <ele>157</ele>
        <time>2019-08-02T09:44:21Z</time>
      </trkpt>
      <trkpt lat="47.85015" lon="0.34312">
        <ele>157</ele>
        <time>2019-08-02T09:44:24Z</time>
      </trkpt>
      <trkpt lat="47.85011" lon="0.34299">
        <ele>154</ele>
        <time>2019-08-02T09:44:31Z</time>
      </trkpt>
      <trkpt lat="47.85008" lon="0.34296">
        <ele>154</ele>
        <time>2019-08-02T09:44:34Z</time>
      </trkpt>
      <trkpt lat="47.85006" lon="0.34293">
        <ele>156</ele>
        <time>2019-08-02T09:44:37Z</time>
      </trkpt>
      <trkpt lat="47.85003" lon="0.34272">
        <ele>152</ele>
        <time>2019-08-02T09:44:50Z</time>
      </trkpt>
      <trkpt lat="47.85001" lon="0.34263">
        <ele>152</ele>
        <time>2019-08-02T09:44:55Z</time>
      </trkpt>
      <trkpt lat="47.84998" lon="0.34253">
        <ele>153</ele>
        <time>2019-08-02T09:45:01Z</time>
      </trkpt>
      <trkpt lat="47.8499" lon="0.34225">
        <ele>152</ele>
        <time>2019-08-02T09:45:17Z</time>
      </trkpt>
      <trkpt lat="47.84986" lon="0.3421">
        <ele>153</ele>
        <time>2019-08-02T09:45:24Z</time>
      </trkpt>
      <trkpt lat="47.84984" lon="0.34206">
        <ele>151</ele>
        <time>2019-08-02T09:45:26Z</time>
      </trkpt>
      <trkpt lat="47.84983" lon="0.34201">
        <ele>150</ele>
        <time>2019-08-02T09:45:29Z</time>
      </trkpt>
      <trkpt lat="47.84976" lon="0.3417">
        <ele>150</ele>
        <time>2019-08-02T09:45:46Z</time>
      </trkpt>
      <trkpt lat="47.84974" lon="0.34166">
        <ele>150</ele>
        <time>2019-08-02T09:45:49Z</time>
      </trkpt>
      <trkpt lat="47.84972" lon="0.34161">
        <ele>151</ele>
        <time>2019-08-02T09:45:52Z</time>
      </trkpt>
      <trkpt lat="47.84961" lon="0.34137">
        <ele>155</ele>
        <time>2019-08-02T09:46:11Z</time>
      </trkpt>
      <trkpt lat="47.84955" lon="0.34082">
        <ele>153</ele>
        <time>2019-08-02T09:46:38Z</time>
      </trkpt>
      <trkpt lat="47.84956" lon="0.34023">
        <ele>153</ele>
        <time>2019-08-02T09:47:10Z</time>
      </trkpt>
      <trkpt lat="47.84955" lon="0.34013">
        <ele>152</ele>
        <time>2019-08-02T09:47:16Z</time>
      </trkpt>
      <trkpt lat="47.84955" lon="0.34007">
        <ele>151</ele>
        <time>2019-08-02T09:47:19Z</time>
      </trkpt>
      <trkpt lat="47.84957" lon="0.34003">
        <ele>147</ele>
        <time>2019-08-02T09:47:22Z</time>
      </trkpt>
      <trkpt lat="47.84958" lon="0.33998">
        <ele>144</ele>
        <time>2019-08-02T09:47:25Z</time>
      </trkpt>
      <trkpt lat="47.84959" lon="0.33986">
        <ele>142</ele>
        <time>2019-08-02T09:47:31Z</time>
      </trkpt>
      <trkpt lat="47.84958" lon="0.3398">
        <ele>142</ele>
        <time>2019-08-02T09:47:34Z</time>
      </trkpt>
      <trkpt lat="47.84957" lon="0.33974">
        <ele>142</ele>
        <time>2019-08-02T09:47:37Z</time>
      </trkpt>
      <trkpt lat="47.84957" lon="0.33969">
        <ele>143</ele>
        <time>2019-08-02T09:47:39Z</time>
      </trkpt>
      <trkpt lat="47.84955" lon="0.33953">
        <ele>143</ele>
        <time>2019-08-02T09:47:46Z</time>
      </trkpt>
      <trkpt lat="47.84954" lon="0.33948">
        <ele>143</ele>
        <time>2019-08-02T09:47:49Z</time>
      </trkpt>
      <trkpt lat="47.84952" lon="0.33942">
        <ele>143</ele>
        <time>2019-08-02T09:47:52Z</time>
      </trkpt>
      <trkpt lat="47.84949" lon="0.33925">
        <ele>144</ele>
        <time>2019-08-02T09:48:00Z</time>
      </trkpt>
      <trkpt lat="47.84945" lon="0.33909">
        <ele>143</ele>
        <time>2019-08-02T09:48:09Z</time>
      </trkpt>
      <trkpt lat="47.8494" lon="0.33894">
        <ele>142</ele>
        <time>2019-08-02T09:48:17Z</time>
      </trkpt>
      <trkpt lat="47.84937" lon="0.33891">
        <ele>142</ele>
        <time>2019-08-02T09:48:20Z</time>
      </trkpt>
      <trkpt lat="47.84946" lon="0.33874">
        <ele>149</ele>
        <time>2019-08-02T09:48:35Z</time>
      </trkpt>
      <trkpt lat="47.84949" lon="0.33863">
        <ele>154</ele>
        <time>2019-08-02T09:48:41Z</time>
      </trkpt>
      <trkpt lat="47.84948" lon="0.33829">
        <ele>138</ele>
        <time>2019-08-02T09:48:59Z</time>
      </trkpt>
      <trkpt lat="47.84948" lon="0.33824">
        <ele>140</ele>
        <time>2019-08-02T09:49:01Z</time>
      </trkpt>
      <trkpt lat="47.84947" lon="0.33813">
        <ele>141</ele>
        <time>2019-08-02T09:49:07Z</time>
      </trkpt>
      <trkpt lat="47.84946" lon="0.33807">
        <ele>142</ele>
        <time>2019-08-02T09:49:10Z</time>
      </trkpt>
      <trkpt lat="47.84944" lon="0.33798">
        <ele>134</ele>
        <time>2019-08-02T09:49:14Z</time>
      </trkpt>
      <trkpt lat="47.84944" lon="0.33793">
        <ele>135</ele>
        <time>2019-08-02T09:49:17Z</time>
      </trkpt>
      <trkpt lat="47.84944" lon="0.33786">
        <ele>137</ele>
        <time>2019-08-02T09:49:20Z</time>
      </trkpt>
      <trkpt lat="47.84943" lon="0.33772">
        <ele>138</ele>
        <time>2019-08-02T09:49:25Z</time>
      </trkpt>
      <trkpt lat="47.84945" lon="0.33766">
        <ele>137</ele>
        <time>2019-08-02T09:49:28Z</time>
      </trkpt>
      <trkpt lat="47.84944" lon="0.3376">
        <ele>139</ele>
        <time>2019-08-02T09:49:31Z</time>
      </trkpt>
      <trkpt lat="47.84944" lon="0.33742">
        <ele>139</ele>
        <time>2019-08-02T09:49:40Z</time>
      </trkpt>
      <trkpt lat="47.84939" lon="0.33725">
        <ele>138</ele>
        <time>2019-08-02T09:49:52Z</time>
      </trkpt>
      <trkpt lat="47.84936" lon="0.33713">
        <ele>133</ele>
        <time>2019-08-02T09:49:59Z</time>
      </trkpt>
      <trkpt lat="47.84938" lon="0.33699">
        <ele>132</ele>
        <time>2019-08-02T09:50:05Z</time>
      </trkpt>
      <trkpt lat="47.84937" lon="0.33685">
        <ele>133</ele>
        <time>2019-08-02T09:50:11Z</time>
      </trkpt>
      <trkpt lat="47.84932" lon="0.33616">
        <ele>113</ele>
        <time>2019-08-02T09:50:42Z</time>
      </trkpt>
      <trkpt lat="47.84931" lon="0.33598">
        <ele>103</ele>
        <time>2019-08-02T09:50:48Z</time>
      </trkpt>
      <trkpt lat="47.84925" lon="0.33599">
        <ele>106</ele>
        <time>2019-08-02T09:50:50Z</time>
      </trkpt>
      <trkpt lat="47.84926" lon="0.3359">
        <ele>108</ele>
        <time>2019-08-02T09:50:54Z</time>
      </trkpt>
      <trkpt lat="47.84928" lon="0.33583">
        <ele>109</ele>
        <time>2019-08-02T09:51:01Z</time>
      </trkpt>
      <trkpt lat="47.84926" lon="0.33576">
        <ele>111</ele>
        <time>2019-08-02T09:51:05Z</time>
      </trkpt>
      <trkpt lat="47.84924" lon="0.33562">
        <ele>113</ele>
        <time>2019-08-02T09:51:11Z</time>
      </trkpt>
      <trkpt lat="47.8492" lon="0.33544">
        <ele>116</ele>
        <time>2019-08-02T09:51:18Z</time>
      </trkpt>
      <trkpt lat="47.84914" lon="0.33517">
        <ele>119</ele>
        <time>2019-08-02T09:51:31Z</time>
      </trkpt>
      <trkpt lat="47.84913" lon="0.33512">
        <ele>119</ele>
        <time>2019-08-02T09:51:34Z</time>
      </trkpt>
      <trkpt lat="47.84907" lon="0.33479">
        <ele>117</ele>
        <time>2019-08-02T09:51:56Z</time>
      </trkpt>
      <trkpt lat="47.84905" lon="0.33465">
        <ele>117</ele>
        <time>2019-08-02T09:52:02Z</time>
      </trkpt>
      <trkpt lat="47.84907" lon="0.33437">
        <ele>113</ele>
        <time>2019-08-02T09:52:18Z</time>
      </trkpt>
      <trkpt lat="47.84906" lon="0.33423">
        <ele>114</ele>
        <time>2019-08-02T09:52:30Z</time>
      </trkpt>
      <trkpt lat="47.84903" lon="0.3341">
        <ele>115</ele>
        <time>2019-08-02T09:52:37Z</time>
      </trkpt>
      <trkpt lat="47.84901" lon="0.33393">
        <ele>119</ele>
        <time>2019-08-02T09:52:44Z</time>
      </trkpt>
      <trkpt lat="47.84899" lon="0.33387">
        <ele>121</ele>
        <time>2019-08-02T09:52:47Z</time>
      </trkpt>
      <trkpt lat="47.84899" lon="0.33382">
        <ele>123</ele>
        <time>2019-08-02T09:52:50Z</time>
      </trkpt>
      <trkpt lat="47.84899" lon="0.33371">
        <ele>128</ele>
        <time>2019-08-02T09:52:56Z</time>
      </trkpt>
      <trkpt lat="47.84898" lon="0.33366">
        <ele>128</ele>
        <time>2019-08-02T09:52:59Z</time>
      </trkpt>
      <trkpt lat="47.84897" lon="0.33356">
        <ele>128</ele>
        <time>2019-08-02T09:53:05Z</time>
      </trkpt>
      <trkpt lat="47.84897" lon="0.3335">
        <ele>128</ele>
        <time>2019-08-02T09:53:08Z</time>
      </trkpt>
      <trkpt lat="47.84901" lon="0.33332">
        <ele>129</ele>
        <time>2019-08-02T09:53:17Z</time>
      </trkpt>
      <trkpt lat="47.8492" lon="0.33289">
        <ele>128</ele>
        <time>2019-08-02T09:53:43Z</time>
      </trkpt>
      <trkpt lat="47.84921" lon="0.33284">
        <ele>129</ele>
        <time>2019-08-02T09:53:45Z</time>
      </trkpt>
      <trkpt lat="47.84924" lon="0.33275">
        <ele>134</ele>
        <time>2019-08-02T09:53:50Z</time>
      </trkpt>
      <trkpt lat="47.84924" lon="0.3327">
        <ele>135</ele>
        <time>2019-08-02T09:53:53Z</time>
      </trkpt>
      <trkpt lat="47.84929" lon="0.33263">
        <ele>131</ele>
        <time>2019-08-02T09:54:00Z</time>
      </trkpt>
      <trkpt lat="47.8493" lon="0.33256">
        <ele>129</ele>
        <time>2019-08-02T09:54:03Z</time>
      </trkpt>
      <trkpt lat="47.84931" lon="0.33253">
        <ele>129</ele>
        <time>2019-08-02T09:54:05Z</time>
      </trkpt>
      <trkpt lat="47.84933" lon="0.33242">
        <ele>132</ele>
        <time>2019-08-02T09:54:14Z</time>
      </trkpt>
      <trkpt lat="47.84939" lon="0.33222">
        <ele>131</ele>
        <time>2019-08-02T09:54:26Z</time>
      </trkpt>
      <trkpt lat="47.84945" lon="0.33211">
        <ele>130</ele>
        <time>2019-08-02T09:54:32Z</time>
      </trkpt>
      <trkpt lat="47.84946" lon="0.33206">
        <ele>130</ele>
        <time>2019-08-02T09:54:34Z</time>
      </trkpt>
      <trkpt lat="47.84947" lon="0.33201">
        <ele>131</ele>
        <time>2019-08-02T09:54:36Z</time>
      </trkpt>
      <trkpt lat="47.8495" lon="0.33197">
        <ele>132</ele>
        <time>2019-08-02T09:54:38Z</time>
      </trkpt>
      <trkpt lat="47.84966" lon="0.3317">
        <ele>126</ele>
        <time>2019-08-02T09:54:57Z</time>
      </trkpt>
      <trkpt lat="47.84969" lon="0.33154">
        <ele>124</ele>
        <time>2019-08-02T09:55:06Z</time>
      </trkpt>
      <trkpt lat="47.84974" lon="0.33147">
        <ele>124</ele>
        <time>2019-08-02T09:55:11Z</time>
      </trkpt>
      <trkpt lat="47.84979" lon="0.33139">
        <ele>125</ele>
        <time>2019-08-02T09:55:17Z</time>
      </trkpt>
      <trkpt lat="47.8498" lon="0.33135">
        <ele>125</ele>
        <time>2019-08-02T09:55:20Z</time>
      </trkpt>
      <trkpt lat="47.84979" lon="0.33129">
        <ele>126</ele>
        <time>2019-08-02T09:55:23Z</time>
      </trkpt>
      <trkpt lat="47.84964" lon="0.3309">
        <ele>120</ele>
        <time>2019-08-02T09:55:45Z</time>
      </trkpt>
      <trkpt lat="47.8496" lon="0.3307">
        <ele>121</ele>
        <time>2019-08-02T09:55:57Z</time>
      </trkpt>
      <trkpt lat="47.84953" lon="0.33044">
        <ele>119</ele>
        <time>2019-08-02T09:56:12Z</time>
      </trkpt>
      <trkpt lat="47.84951" lon="0.33034">
        <ele>122</ele>
        <time>2019-08-02T09:56:18Z</time>
      </trkpt>
      <trkpt lat="47.84949" lon="0.33024">
        <ele>122</ele>
        <time>2019-08-02T09:56:24Z</time>
      </trkpt>
      <trkpt lat="47.84944" lon="0.33008">
        <ele>128</ele>
        <time>2019-08-02T09:56:33Z</time>
      </trkpt>
      <trkpt lat="47.84937" lon="0.3298">
        <ele>130</ele>
        <time>2019-08-02T09:56:49Z</time>
      </trkpt>
      <trkpt lat="47.84936" lon="0.32975">
        <ele>131</ele>
        <time>2019-08-02T09:56:52Z</time>
      </trkpt>
      <trkpt lat="47.84933" lon="0.3295">
        <ele>132</ele>
        <time>2019-08-02T09:57:06Z</time>
      </trkpt>
      <trkpt lat="47.84932" lon="0.32918">
        <ele>133</ele>
        <time>2019-08-02T09:57:26Z</time>
      </trkpt>
      <trkpt lat="47.84928" lon="0.32903">
        <ele>133</ele>
        <time>2019-08-02T09:57:34Z</time>
      </trkpt>
      <trkpt lat="47.84924" lon="0.32868">
        <ele>136</ele>
        <time>2019-08-02T09:57:51Z</time>
      </trkpt>
      <trkpt lat="47.84925" lon="0.3286">
        <ele>137</ele>
        <time>2019-08-02T09:57:53Z</time>
      </trkpt>
      <trkpt lat="47.84925" lon="0.32856">
        <ele>137</ele>
        <time>2019-08-02T09:57:55Z</time>
      </trkpt>
      <trkpt lat="47.84925" lon="0.32845">
        <ele>138</ele>
        <time>2019-08-02T09:58:02Z</time>
      </trkpt>
      <trkpt lat="47.84924" lon="0.32836">
        <ele>137</ele>
        <time>2019-08-02T09:58:08Z</time>
      </trkpt>
      <trkpt lat="47.84925" lon="0.3283">
        <ele>138</ele>
        <time>2019-08-02T09:58:11Z</time>
      </trkpt>
      <trkpt lat="47.84924" lon="0.32825">
        <ele>138</ele>
        <time>2019-08-02T09:58:13Z</time>
      </trkpt>
      <trkpt lat="47.84923" lon="0.3282">
        <ele>137</ele>
        <time>2019-08-02T09:58:17Z</time>
      </trkpt>
      <trkpt lat="47.84924" lon="0.32815">
        <ele>137</ele>
        <time>2019-08-02T09:58:20Z</time>
      </trkpt>
      <trkpt lat="47.84925" lon="0.3281">
        <ele>137</ele>
        <time>2019-08-02T09:58:23Z</time>
      </trkpt>
      <trkpt lat="47.84923" lon="0.32804">
        <ele>137</ele>
        <time>2019-08-02T09:58:26Z</time>
      </trkpt>
      <trkpt lat="47.84921" lon="0.328">
        <ele>136</ele>
        <time>2019-08-02T09:58:28Z</time>
      </trkpt>
      <trkpt lat="47.8492" lon="0.3279">
        <ele>135</ele>
        <time>2019-08-02T09:58:33Z</time>
      </trkpt>
      <trkpt lat="47.84917" lon="0.32765">
        <ele>134</ele>
        <time>2019-08-02T09:58:44Z</time>
      </trkpt>
      <trkpt lat="47.84905" lon="0.32739">
        <ele>134</ele>
        <time>2019-08-02T09:58:59Z</time>
      </trkpt>
      <trkpt lat="47.84898" lon="0.32726">
        <ele>134</ele>
        <time>2019-08-02T09:59:08Z</time>
      </trkpt>
      <trkpt lat="47.84895" lon="0.32717">
        <ele>132</ele>
        <time>2019-08-02T09:59:14Z</time>
      </trkpt>
      <trkpt lat="47.84893" lon="0.32712">
        <ele>135</ele>
        <time>2019-08-02T09:59:17Z</time>
      </trkpt>
      <trkpt lat="47.84889" lon="0.32702">
        <ele>137</ele>
        <time>2019-08-02T09:59:23Z</time>
      </trkpt>
      <trkpt lat="47.84882" lon="0.32682">
        <ele>141</ele>
        <time>2019-08-02T09:59:35Z</time>
      </trkpt>
      <trkpt lat="47.8488" lon="0.32677">
        <ele>142</ele>
        <time>2019-08-02T09:59:38Z</time>
      </trkpt>
      <trkpt lat="47.84874" lon="0.32663">
        <ele>143</ele>
        <time>2019-08-02T09:59:47Z</time>
      </trkpt>
      <trkpt lat="47.8487" lon="0.32654">
        <ele>143</ele>
        <time>2019-08-02T09:59:53Z</time>
      </trkpt>
      <trkpt lat="47.84868" lon="0.3265">
        <ele>143</ele>
        <time>2019-08-02T09:59:55Z</time>
      </trkpt>
      <trkpt lat="47.84855" lon="0.32623">
        <ele>142</ele>
        <time>2019-08-02T10:00:13Z</time>
      </trkpt>
      <trkpt lat="47.84851" lon="0.32614">
        <ele>142</ele>
        <time>2019-08-02T10:00:19Z</time>
      </trkpt>
      <trkpt lat="47.84842" lon="0.32597">
        <ele>143</ele>
        <time>2019-08-02T10:00:31Z</time>
      </trkpt>
      <trkpt lat="47.84841" lon="0.32593">
        <ele>144</ele>
        <time>2019-08-02T10:00:34Z</time>
      </trkpt>
      <trkpt lat="47.84838" lon="0.32588">
        <ele>140</ele>
        <time>2019-08-02T10:00:38Z</time>
      </trkpt>
      <trkpt lat="47.84836" lon="0.32584">
        <ele>138</ele>
        <time>2019-08-02T10:00:40Z</time>
      </trkpt>
      <trkpt lat="47.84827" lon="0.32569">
        <ele>135</ele>
        <time>2019-08-02T10:00:49Z</time>
      </trkpt>
      <trkpt lat="47.84823" lon="0.32566">
        <ele>134</ele>
        <time>2019-08-02T10:00:52Z</time>
      </trkpt>
      <trkpt lat="47.8482" lon="0.32561">
        <ele>132</ele>
        <time>2019-08-02T10:00:56Z</time>
      </trkpt>
      <trkpt lat="47.84819" lon="0.32554">
        <ele>132</ele>
        <time>2019-08-02T10:01:00Z</time>
      </trkpt>
      <trkpt lat="47.84813" lon="0.32541">
        <ele>133</ele>
        <time>2019-08-02T10:01:09Z</time>
      </trkpt>
      <trkpt lat="47.84811" lon="0.32537">
        <ele>135</ele>
        <time>2019-08-02T10:01:12Z</time>
      </trkpt>
      <trkpt lat="47.84809" lon="0.32533">
        <ele>136</ele>
        <time>2019-08-02T10:01:14Z</time>
      </trkpt>
      <trkpt lat="47.84807" lon="0.32518">
        <ele>141</ele>
        <time>2019-08-02T10:01:21Z</time>
      </trkpt>
      <trkpt lat="47.84803" lon="0.32503">
        <ele>136</ele>
        <time>2019-08-02T10:01:28Z</time>
      </trkpt>
      <trkpt lat="47.848" lon="0.32488">
        <ele>138</ele>
        <time>2019-08-02T10:01:36Z</time>
      </trkpt>
      <trkpt lat="47.84792" lon="0.32466">
        <ele>138</ele>
        <time>2019-08-02T10:01:50Z</time>
      </trkpt>
      <trkpt lat="47.8479" lon="0.32444">
        <ele>135</ele>
        <time>2019-08-02T10:01:59Z</time>
      </trkpt>
      <trkpt lat="47.84788" lon="0.32441">
        <ele>134</ele>
        <time>2019-08-02T10:02:01Z</time>
      </trkpt>
      <trkpt lat="47.84786" lon="0.32432">
        <ele>136</ele>
        <time>2019-08-02T10:02:05Z</time>
      </trkpt>
      <trkpt lat="47.84778" lon="0.32388">
        <ele>130</ele>
        <time>2019-08-02T10:02:29Z</time>
      </trkpt>
      <trkpt lat="47.84777" lon="0.32382">
        <ele>131</ele>
        <time>2019-08-02T10:02:32Z</time>
      </trkpt>
      <trkpt lat="47.84777" lon="0.32378">
        <ele>131</ele>
        <time>2019-08-02T10:02:34Z</time>
      </trkpt>
      <trkpt lat="47.84777" lon="0.32371">
        <ele>132</ele>
        <time>2019-08-02T10:02:37Z</time>
      </trkpt>
      <trkpt lat="47.84777" lon="0.32366">
        <ele>127</ele>
        <time>2019-08-02T10:02:40Z</time>
      </trkpt>
      <trkpt lat="47.84779" lon="0.32361">
        <ele>124</ele>
        <time>2019-08-02T10:02:43Z</time>
      </trkpt>
      <trkpt lat="47.84781" lon="0.32357">
        <ele>123</ele>
        <time>2019-08-02T10:02:46Z</time>
      </trkpt>
      <trkpt lat="47.84782" lon="0.32353">
        <ele>123</ele>
        <time>2019-08-02T10:02:48Z</time>
      </trkpt>
      <trkpt lat="47.84784" lon="0.32348">
        <ele>121</ele>
        <time>2019-08-02T10:02:52Z</time>
      </trkpt>
      <trkpt lat="47.84814" lon="0.32314">
        <ele>129</ele>
        <time>2019-08-02T10:03:18Z</time>
      </trkpt>
      <trkpt lat="47.84817" lon="0.32309">
        <ele>129</ele>
        <time>2019-08-02T10:03:21Z</time>
      </trkpt>
      <trkpt lat="47.84822" lon="0.32303">
        <ele>127</ele>
        <time>2019-08-02T10:03:26Z</time>
      </trkpt>
      <trkpt lat="47.84827" lon="0.32296">
        <ele>127</ele>
        <time>2019-08-02T10:03:31Z</time>
      </trkpt>
      <trkpt lat="47.84839" lon="0.32282">
        <ele>126</ele>
        <time>2019-08-02T10:03:42Z</time>
      </trkpt>
      <trkpt lat="47.84848" lon="0.32272">
        <ele>126</ele>
        <time>2019-08-02T10:03:51Z</time>
      </trkpt>
      <trkpt lat="47.84851" lon="0.32269">
        <ele>124</ele>
        <time>2019-08-02T10:03:53Z</time>
      </trkpt>
      <trkpt lat="47.84853" lon="0.32264">
        <ele>124</ele>
        <time>2019-08-02T10:03:55Z</time>
      </trkpt>
      <trkpt lat="47.84853" lon="0.32257">
        <ele>122</ele>
        <time>2019-08-02T10:03:57Z</time>
      </trkpt>
      <trkpt lat="47.84855" lon="0.32252">
        <ele>121</ele>
        <time>2019-08-02T10:04:00Z</time>
      </trkpt>
      <trkpt lat="47.84862" lon="0.32247">
        <ele>121</ele>
        <time>2019-08-02T10:04:06Z</time>
      </trkpt>
      <trkpt lat="47.84866" lon="0.32245">
        <ele>124</ele>
        <time>2019-08-02T10:04:09Z</time>
      </trkpt>
      <trkpt lat="47.84869" lon="0.32242">
        <ele>124</ele>
        <time>2019-08-02T10:04:12Z</time>
      </trkpt>
      <trkpt lat="47.84872" lon="0.32239">
        <ele>125</ele>
        <time>2019-08-02T10:04:15Z</time>
      </trkpt>
      <trkpt lat="47.84875" lon="0.32236">
        <ele>124</ele>
        <time>2019-08-02T10:04:18Z</time>
      </trkpt>
      <trkpt lat="47.84878" lon="0.32233">
        <ele>124</ele>
        <time>2019-08-02T10:04:21Z</time>
      </trkpt>
      <trkpt lat="47.84882" lon="0.32229">
        <ele>125</ele>
        <time>2019-08-02T10:04:24Z</time>
      </trkpt>
      <trkpt lat="47.84884" lon="0.32225">
        <ele>125</ele>
        <time>2019-08-02T10:04:27Z</time>
      </trkpt>
      <trkpt lat="47.84887" lon="0.32223">
        <ele>125</ele>
        <time>2019-08-02T10:04:29Z</time>
      </trkpt>
      <trkpt lat="47.8489" lon="0.32221">
        <ele>125</ele>
        <time>2019-08-02T10:04:32Z</time>
      </trkpt>
      <trkpt lat="47.84899" lon="0.32211">
        <ele>124</ele>
        <time>2019-08-02T10:04:41Z</time>
      </trkpt>
      <trkpt lat="47.84902" lon="0.32206">
        <ele>123</ele>
        <time>2019-08-02T10:04:45Z</time>
      </trkpt>
      <trkpt lat="47.84905" lon="0.32202">
        <ele>125</ele>
        <time>2019-08-02T10:04:50Z</time>
      </trkpt>
      <trkpt lat="47.8491" lon="0.32203">
        <ele>125</ele>
        <time>2019-08-02T10:04:54Z</time>
      </trkpt>
      <trkpt lat="47.84914" lon="0.32202">
        <ele>125</ele>
        <time>2019-08-02T10:04:57Z</time>
      </trkpt>
      <trkpt lat="47.84917" lon="0.32199">
        <ele>124</ele>
        <time>2019-08-02T10:05:01Z</time>
      </trkpt>
      <trkpt lat="47.84919" lon="0.32194">
        <ele>124</ele>
        <time>2019-08-02T10:05:05Z</time>
      </trkpt>
      <trkpt lat="47.84924" lon="0.32197">
        <ele>124</ele>
        <time>2019-08-02T10:05:08Z</time>
      </trkpt>
      <trkpt lat="47.8493" lon="0.32194">
        <ele>118</ele>
        <time>2019-08-02T10:05:14Z</time>
      </trkpt>
      <trkpt lat="47.84932" lon="0.32187">
        <ele>119</ele>
        <time>2019-08-02T10:05:18Z</time>
      </trkpt>
      <trkpt lat="47.84936" lon="0.32183">
        <ele>121</ele>
        <time>2019-08-02T10:05:22Z</time>
      </trkpt>
      <trkpt lat="47.84943" lon="0.3218">
        <ele>126</ele>
        <time>2019-08-02T10:05:28Z</time>
      </trkpt>
      <trkpt lat="47.84949" lon="0.32174">
        <ele>127</ele>
        <time>2019-08-02T10:05:33Z</time>
      </trkpt>
      <trkpt lat="47.8497" lon="0.32154">
        <ele>129</ele>
        <time>2019-08-02T10:05:52Z</time>
      </trkpt>
      <trkpt lat="47.84987" lon="0.32141">
        <ele>133</ele>
        <time>2019-08-02T10:06:04Z</time>
      </trkpt>
      <trkpt lat="47.84999" lon="0.32127">
        <ele>131</ele>
        <time>2019-08-02T10:06:14Z</time>
      </trkpt>
      <trkpt lat="47.85002" lon="0.3212">
        <ele>131</ele>
        <time>2019-08-02T10:06:17Z</time>
      </trkpt>
      <trkpt lat="47.85004" lon="0.32115">
        <ele>132</ele>
        <time>2019-08-02T10:06:19Z</time>
      </trkpt>
      <trkpt lat="47.85014" lon="0.32102">
        <ele>134</ele>
        <time>2019-08-02T10:06:28Z</time>
      </trkpt>
      <trkpt lat="47.85018" lon="0.32099">
        <ele>132</ele>
        <time>2019-08-02T10:06:31Z</time>
      </trkpt>
      <trkpt lat="47.85021" lon="0.32097">
        <ele>132</ele>
        <time>2019-08-02T10:06:34Z</time>
      </trkpt>
      <trkpt lat="47.85028" lon="0.32088">
        <ele>132</ele>
        <time>2019-08-02T10:06:40Z</time>
      </trkpt>
      <trkpt lat="47.85031" lon="0.32079">
        <ele>132</ele>
        <time>2019-08-02T10:06:44Z</time>
      </trkpt>
      <trkpt lat="47.85033" lon="0.32075">
        <ele>131</ele>
        <time>2019-08-02T10:06:46Z</time>
      </trkpt>
      <trkpt lat="47.85035" lon="0.32073">
        <ele>131</ele>
        <time>2019-08-02T10:06:48Z</time>
      </trkpt>
      <trkpt lat="47.85041" lon="0.32066">
        <ele>130</ele>
        <time>2019-08-02T10:06:54Z</time>
      </trkpt>
      <trkpt lat="47.85044" lon="0.32063">
        <ele>131</ele>
        <time>2019-08-02T10:06:56Z</time>
      </trkpt>
      <trkpt lat="47.85048" lon="0.32062">
        <ele>132</ele>
        <time>2019-08-02T10:06:59Z</time>
      </trkpt>
      <trkpt lat="47.85051" lon="0.32059">
        <ele>132</ele>
        <time>2019-08-02T10:07:02Z</time>
      </trkpt>
      <trkpt lat="47.85057" lon="0.32045">
        <ele>133</ele>
        <time>2019-08-02T10:07:08Z</time>
      </trkpt>
      <trkpt lat="47.8506" lon="0.32044">
        <ele>131</ele>
        <time>2019-08-02T10:07:10Z</time>
      </trkpt>
      <trkpt lat="47.85067" lon="0.32041">
        <ele>128</ele>
        <time>2019-08-02T10:07:14Z</time>
      </trkpt>
      <trkpt lat="47.8507" lon="0.32039">
        <ele>129</ele>
        <time>2019-08-02T10:07:17Z</time>
      </trkpt>
      <trkpt lat="47.85072" lon="0.32034">
        <ele>129</ele>
        <time>2019-08-02T10:07:20Z</time>
      </trkpt>
      <trkpt lat="47.85079" lon="0.32023">
        <ele>128</ele>
        <time>2019-08-02T10:07:26Z</time>
      </trkpt>
      <trkpt lat="47.85081" lon="0.32015">
        <ele>128</ele>
        <time>2019-08-02T10:07:30Z</time>
      </trkpt>
      <trkpt lat="47.85082" lon="0.32011">
        <ele>129</ele>
        <time>2019-08-02T10:07:32Z</time>
      </trkpt>
      <trkpt lat="47.85101" lon="0.31972">
        <ele>133</ele>
        <time>2019-08-02T10:07:58Z</time>
      </trkpt>
      <trkpt lat="47.85105" lon="0.31962">
        <ele>133</ele>
        <time>2019-08-02T10:08:04Z</time>
      </trkpt>
      <trkpt lat="47.85109" lon="0.31954">
        <ele>134</ele>
        <time>2019-08-02T10:08:10Z</time>
      </trkpt>
      <trkpt lat="47.85111" lon="0.31949">
        <ele>134</ele>
        <time>2019-08-02T10:08:13Z</time>
      </trkpt>
      <trkpt lat="47.85112" lon="0.31944">
        <ele>135</ele>
        <time>2019-08-02T10:08:16Z</time>
      </trkpt>
      <trkpt lat="47.85119" lon="0.31933">
        <ele>136</ele>
        <time>2019-08-02T10:08:25Z</time>
      </trkpt>
      <trkpt lat="47.85126" lon="0.31911">
        <ele>135</ele>
        <time>2019-08-02T10:08:36Z</time>
      </trkpt>
      <trkpt lat="47.8513" lon="0.31903">
        <ele>133</ele>
        <time>2019-08-02T10:08:41Z</time>
      </trkpt>
      <trkpt lat="47.85134" lon="0.31893">
        <ele>132</ele>
        <time>2019-08-02T10:08:47Z</time>
      </trkpt>
      <trkpt lat="47.85144" lon="0.31869">
        <ele>127</ele>
        <time>2019-08-02T10:08:59Z</time>
      </trkpt>
      <trkpt lat="47.85146" lon="0.31866">
        <ele>128</ele>
        <time>2019-08-02T10:09:02Z</time>
      </trkpt>
      <trkpt lat="47.85151" lon="0.31858">
        <ele>123</ele>
        <time>2019-08-02T10:09:07Z</time>
      </trkpt>
      <trkpt lat="47.85162" lon="0.31827">
        <ele>121</ele>
        <time>2019-08-02T10:09:22Z</time>
      </trkpt>
      <trkpt lat="47.85171" lon="0.31825">
        <ele>138</ele>
        <time>2019-08-02T10:09:31Z</time>
      </trkpt>
      <trkpt lat="47.8518" lon="0.31813">
        <ele>146</ele>
        <time>2019-08-02T10:09:40Z</time>
      </trkpt>
      <trkpt lat="47.85183" lon="0.31811">
        <ele>148</ele>
        <time>2019-08-02T10:09:43Z</time>
      </trkpt>
      <trkpt lat="47.85187" lon="0.31808">
        <ele>151</ele>
        <time>2019-08-02T10:09:46Z</time>
      </trkpt>
      <trkpt lat="47.85187" lon="0.318">
        <ele>151</ele>
        <time>2019-08-02T10:09:49Z</time>
      </trkpt>
      <trkpt lat="47.85187" lon="0.31796">
        <ele>152</ele>
        <time>2019-08-02T10:09:51Z</time>
      </trkpt>
      <trkpt lat="47.85191" lon="0.31793">
        <ele>153</ele>
        <time>2019-08-02T10:09:54Z</time>
      </trkpt>
      <trkpt lat="47.85194" lon="0.31793">
        <ele>154</ele>
        <time>2019-08-02T10:09:56Z</time>
      </trkpt>
      <trkpt lat="47.85199" lon="0.31787">
        <ele>152</ele>
        <time>2019-08-02T10:10:03Z</time>
      </trkpt>
      <trkpt lat="47.8522" lon="0.31771">
        <ele>152</ele>
        <time>2019-08-02T10:10:20Z</time>
      </trkpt>
      <trkpt lat="47.85224" lon="0.31763">
        <ele>152</ele>
        <time>2019-08-02T10:10:24Z</time>
      </trkpt>
      <trkpt lat="47.85231" lon="0.31758">
        <ele>151</ele>
        <time>2019-08-02T10:10:30Z</time>
      </trkpt>
      <trkpt lat="47.85233" lon="0.31753">
        <ele>151</ele>
        <time>2019-08-02T10:10:34Z</time>
      </trkpt>
      <trkpt lat="47.85236" lon="0.31749">
        <ele>147</ele>
        <time>2019-08-02T10:10:37Z</time>
      </trkpt>
      <trkpt lat="47.85242" lon="0.31745">
        <ele>146</ele>
        <time>2019-08-02T10:10:43Z</time>
      </trkpt>
      <trkpt lat="47.85245" lon="0.31742">
        <ele>142</ele>
        <time>2019-08-02T10:10:46Z</time>
      </trkpt>
      <trkpt lat="47.85256" lon="0.3173">
        <ele>144</ele>
        <time>2019-08-02T10:10:56Z</time>
      </trkpt>
      <trkpt lat="47.85259" lon="0.31727">
        <ele>144</ele>
        <time>2019-08-02T10:10:59Z</time>
      </trkpt>
      <trkpt lat="47.85266" lon="0.31723">
        <ele>142</ele>
        <time>2019-08-02T10:11:04Z</time>
      </trkpt>
      <trkpt lat="47.85271" lon="0.31721">
        <ele>140</ele>
        <time>2019-08-02T10:11:07Z</time>
      </trkpt>
      <trkpt lat="47.85273" lon="0.31719">
        <ele>139</ele>
        <time>2019-08-02T10:11:09Z</time>
      </trkpt>
      <trkpt lat="47.85276" lon="0.31716">
        <ele>139</ele>
        <time>2019-08-02T10:11:11Z</time>
      </trkpt>
      <trkpt lat="47.85279" lon="0.31714">
        <ele>138</ele>
        <time>2019-08-02T10:11:13Z</time>
      </trkpt>
      <trkpt lat="47.85321" lon="0.31688">
        <ele>134</ele>
        <time>2019-08-02T10:11:44Z</time>
      </trkpt>
      <trkpt lat="47.85341" lon="0.31675">
        <ele>133</ele>
        <time>2019-08-02T10:12:01Z</time>
      </trkpt>
      <trkpt lat="47.85349" lon="0.31672">
        <ele>131</ele>
        <time>2019-08-02T10:12:07Z</time>
      </trkpt>
      <trkpt lat="47.85353" lon="0.31671">
        <ele>131</ele>
        <time>2019-08-02T10:12:10Z</time>
      </trkpt>
      <trkpt lat="47.85376" lon="0.31652">
        <ele>135</ele>
        <time>2019-08-02T10:12:29Z</time>
      </trkpt>
      <trkpt lat="47.85383" lon="0.31648">
        <ele>138</ele>
        <time>2019-08-02T10:12:36Z</time>
      </trkpt>
      <trkpt lat="47.85392" lon="0.31643">
        <ele>136</ele>
        <time>2019-08-02T10:12:43Z</time>
      </trkpt>
      <trkpt lat="47.85395" lon="0.3164">
        <ele>137</ele>
        <time>2019-08-02T10:12:46Z</time>
      </trkpt>
      <trkpt lat="47.85412" lon="0.31631">
        <ele>136</ele>
        <time>2019-08-02T10:12:58Z</time>
      </trkpt>
      <trkpt lat="47.85415" lon="0.31627">
        <ele>136</ele>
        <time>2019-08-02T10:13:01Z</time>
      </trkpt>
      <trkpt lat="47.85415" lon="0.31621">
        <ele>138</ele>
        <time>2019-08-02T10:13:04Z</time>
      </trkpt>
      <trkpt lat="47.85418" lon="0.31617">
        <ele>138</ele>
        <time>2019-08-02T10:13:08Z</time>
      </trkpt>
      <trkpt lat="47.8542" lon="0.31615">
        <ele>138</ele>
        <time>2019-08-02T10:13:11Z</time>
      </trkpt>
      <trkpt lat="47.85427" lon="0.31614">
        <ele>139</ele>
        <time>2019-08-02T10:13:17Z</time>
      </trkpt>
      <trkpt lat="47.85429" lon="0.31612">
        <ele>139</ele>
        <time>2019-08-02T10:13:19Z</time>
      </trkpt>
      <trkpt lat="47.85454" lon="0.31601">
        <ele>135</ele>
        <time>2019-08-02T10:13:33Z</time>
      </trkpt>
      <trkpt lat="47.85456" lon="0.31598">
        <ele>135</ele>
        <time>2019-08-02T10:13:35Z</time>
      </trkpt>
      <trkpt lat="47.85459" lon="0.31592">
        <ele>133</ele>
        <time>2019-08-02T10:13:37Z</time>
      </trkpt>
      <trkpt lat="47.85472" lon="0.31582">
        <ele>131</ele>
        <time>2019-08-02T10:13:46Z</time>
      </trkpt>
      <trkpt lat="47.85477" lon="0.31577">
        <ele>127</ele>
        <time>2019-08-02T10:13:50Z</time>
      </trkpt>
      <trkpt lat="47.85487" lon="0.31576">
        <ele>125</ele>
        <time>2019-08-02T10:13:57Z</time>
      </trkpt>
      <trkpt lat="47.85491" lon="0.31576">
        <ele>127</ele>
        <time>2019-08-02T10:14:00Z</time>
      </trkpt>
      <trkpt lat="47.85496" lon="0.3158">
        <ele>127</ele>
        <time>2019-08-02T10:14:03Z</time>
      </trkpt>
      <trkpt lat="47.855" lon="0.31577">
        <ele>129</ele>
        <time>2019-08-02T10:14:07Z</time>
      </trkpt>
      <trkpt lat="47.85507" lon="0.31575">
        <ele>127</ele>
        <time>2019-08-02T10:14:11Z</time>
      </trkpt>
      <trkpt lat="47.85511" lon="0.31566">
        <ele>122</ele>
        <time>2019-08-02T10:14:17Z</time>
      </trkpt>
      <trkpt lat="47.85517" lon="0.31559">
        <ele>120</ele>
        <time>2019-08-02T10:14:22Z</time>
      </trkpt>
      <trkpt lat="47.85522" lon="0.31552">
        <ele>118</ele>
        <time>2019-08-02T10:14:26Z</time>
      </trkpt>
      <trkpt lat="47.85531" lon="0.31544">
        <ele>117</ele>
        <time>2019-08-02T10:14:32Z</time>
      </trkpt>
      <trkpt lat="47.85543" lon="0.31532">
        <ele>116</ele>
        <time>2019-08-02T10:14:42Z</time>
      </trkpt>
      <trkpt lat="47.85545" lon="0.31527">
        <ele>117</ele>
        <time>2019-08-02T10:14:45Z</time>
      </trkpt>
      <trkpt lat="47.85546" lon="0.31517">
        <ele>117</ele>
        <time>2019-08-02T10:14:49Z</time>
      </trkpt>
      <trkpt lat="47.85537" lon="0.31453">
        <ele>116</ele>
        <time>2019-08-02T10:15:21Z</time>
      </trkpt>
      <trkpt lat="47.85536" lon="0.31412">
        <ele>117</ele>
        <time>2019-08-02T10:15:40Z</time>
      </trkpt>
      <trkpt lat="47.85535" lon="0.31397">
        <ele>118</ele>
        <time>2019-08-02T10:15:48Z</time>
      </trkpt>
      <trkpt lat="47.8553" lon="0.31376">
        <ele>117</ele>
        <time>2019-08-02T10:15:59Z</time>
      </trkpt>
      <trkpt lat="47.85529" lon="0.3137">
        <ele>117</ele>
        <time>2019-08-02T10:16:02Z</time>
      </trkpt>
      <trkpt lat="47.85531" lon="0.31358">
        <ele>110</ele>
        <time>2019-08-02T10:16:07Z</time>
      </trkpt>
      <trkpt lat="47.85532" lon="0.31352">
        <ele>112</ele>
        <time>2019-08-02T10:16:10Z</time>
      </trkpt>
      <trkpt lat="47.85544" lon="0.31333">
        <ele>115</ele>
        <time>2019-08-02T10:16:20Z</time>
      </trkpt>
      <trkpt lat="47.85548" lon="0.3133">
        <ele>114</ele>
        <time>2019-08-02T10:16:22Z</time>
      </trkpt>
      <trkpt lat="47.85551" lon="0.31321">
        <ele>113</ele>
        <time>2019-08-02T10:16:26Z</time>
      </trkpt>
      <trkpt lat="47.85553" lon="0.31317">
        <ele>113</ele>
        <time>2019-08-02T10:16:28Z</time>
      </trkpt>
      <trkpt lat="47.85567" lon="0.31313">
        <ele>114</ele>
        <time>2019-08-02T10:16:39Z</time>
      </trkpt>
      <trkpt lat="47.8557" lon="0.3131">
        <ele>114</ele>
        <time>2019-08-02T10:16:43Z</time>
      </trkpt>
      <trkpt lat="47.85581" lon="0.313">
        <ele>114</ele>
        <time>2019-08-02T10:16:52Z</time>
      </trkpt>
      <trkpt lat="47.8559" lon="0.31285">
        <ele>116</ele>
        <time>2019-08-02T10:17:01Z</time>
      </trkpt>
      <trkpt lat="47.85591" lon="0.31279">
        <ele>116</ele>
        <time>2019-08-02T10:17:03Z</time>
      </trkpt>
      <trkpt lat="47.85597" lon="0.31253">
        <ele>118</ele>
        <time>2019-08-02T10:17:15Z</time>
      </trkpt>
      <trkpt lat="47.85598" lon="0.31248">
        <ele>109</ele>
        <time>2019-08-02T10:17:18Z</time>
      </trkpt>
      <trkpt lat="47.85598" lon="0.31243">
        <ele>111</ele>
        <time>2019-08-02T10:17:21Z</time>
      </trkpt>
      <trkpt lat="47.85598" lon="0.31238">
        <ele>112</ele>
        <time>2019-08-02T10:17:25Z</time>
      </trkpt>
      <trkpt lat="47.85597" lon="0.31233">
        <ele>106</ele>
        <time>2019-08-02T10:17:29Z</time>
      </trkpt>
      <trkpt lat="47.85598" lon="0.31212">
        <ele>105</ele>
        <time>2019-08-02T10:17:40Z</time>
      </trkpt>
      <trkpt lat="47.85596" lon="0.31176">
        <ele>115</ele>
        <time>2019-08-02T10:17:54Z</time>
      </trkpt>
      <trkpt lat="47.85597" lon="0.31161">
        <ele>103</ele>
        <time>2019-08-02T10:18:02Z</time>
      </trkpt>
      <trkpt lat="47.85597" lon="0.31139">
        <ele>109</ele>
        <time>2019-08-02T10:18:13Z</time>
      </trkpt>
      <trkpt lat="47.85596" lon="0.31135">
        <ele>109</ele>
        <time>2019-08-02T10:18:15Z</time>
      </trkpt>
      <trkpt lat="47.85596" lon="0.31107">
        <ele>111</ele>
        <time>2019-08-02T10:18:28Z</time>
      </trkpt>
      <trkpt lat="47.85593" lon="0.31098">
        <ele>111</ele>
        <time>2019-08-02T10:18:34Z</time>
      </trkpt>
      <trkpt lat="47.85591" lon="0.31094">
        <ele>112</ele>
        <time>2019-08-02T10:18:38Z</time>
      </trkpt>
      <trkpt lat="47.85589" lon="0.31078">
        <ele>111</ele>
        <time>2019-08-02T10:18:46Z</time>
      </trkpt>
      <trkpt lat="47.85588" lon="0.31073">
        <ele>111</ele>
        <time>2019-08-02T10:18:49Z</time>
      </trkpt>
      <trkpt lat="47.85587" lon="0.31069">
        <ele>112</ele>
        <time>2019-08-02T10:18:51Z</time>
      </trkpt>
      <trkpt lat="47.85585" lon="0.31064">
        <ele>112</ele>
        <time>2019-08-02T10:18:53Z</time>
      </trkpt>
      <trkpt lat="47.85581" lon="0.3105">
        <ele>112</ele>
        <time>2019-08-02T10:19:00Z</time>
      </trkpt>
      <trkpt lat="47.85579" lon="0.31047">
        <ele>112</ele>
        <time>2019-08-02T10:19:03Z</time>
      </trkpt>
      <trkpt lat="47.85577" lon="0.31044">
        <ele>114</ele>
        <time>2019-08-02T10:19:07Z</time>
      </trkpt>
      <trkpt lat="47.85574" lon="0.31041">
        <ele>115</ele>
        <time>2019-08-02T10:19:10Z</time>
      </trkpt>
      <trkpt lat="47.85573" lon="0.31036">
        <ele>115</ele>
        <time>2019-08-02T10:19:12Z</time>
      </trkpt>
      <trkpt lat="47.85571" lon="0.31032">
        <ele>115</ele>
        <time>2019-08-02T10:19:14Z</time>
      </trkpt>
      <trkpt lat="47.85568" lon="0.3103">
        <ele>116</ele>
        <time>2019-08-02T10:19:16Z</time>
      </trkpt>
      <trkpt lat="47.85566" lon="0.31028">
        <ele>116</ele>
        <time>2019-08-02T10:19:18Z</time>
      </trkpt>
      <trkpt lat="47.85556" lon="0.31013">
        <ele>116</ele>
        <time>2019-08-02T10:19:26Z</time>
      </trkpt>
      <trkpt lat="47.85548" lon="0.30993">
        <ele>118</ele>
        <time>2019-08-02T10:19:35Z</time>
      </trkpt>
      <trkpt lat="47.85547" lon="0.30978">
        <ele>118</ele>
        <time>2019-08-02T10:19:43Z</time>
      </trkpt>
      <trkpt lat="47.85545" lon="0.30951">
        <ele>115</ele>
        <time>2019-08-02T10:19:57Z</time>
      </trkpt>
      <trkpt lat="47.85543" lon="0.30927">
        <ele>115</ele>
        <time>2019-08-02T10:20:06Z</time>
      </trkpt>
      <trkpt lat="47.85538" lon="0.3091">
        <ele>118</ele>
        <time>2019-08-02T10:20:17Z</time>
      </trkpt>
      <trkpt lat="47.85537" lon="0.30904">
        <ele>119</ele>
        <time>2019-08-02T10:20:20Z</time>
      </trkpt>
      <trkpt lat="47.85536" lon="0.309">
        <ele>119</ele>
        <time>2019-08-02T10:20:23Z</time>
      </trkpt>
      <trkpt lat="47.85535" lon="0.30894">
        <ele>119</ele>
        <time>2019-08-02T10:20:27Z</time>
      </trkpt>
      <trkpt lat="47.85534" lon="0.30888">
        <ele>119</ele>
        <time>2019-08-02T10:20:31Z</time>
      </trkpt>
      <trkpt lat="47.85533" lon="0.30883">
        <ele>117</ele>
        <time>2019-08-02T10:20:34Z</time>
      </trkpt>
      <trkpt lat="47.85524" lon="0.30841">
        <ele>120</ele>
        <time>2019-08-02T10:20:50Z</time>
      </trkpt>
      <trkpt lat="47.85523" lon="0.30836">
        <ele>120</ele>
        <time>2019-08-02T10:20:52Z</time>
      </trkpt>
      <trkpt lat="47.8552" lon="0.30817">
        <ele>121</ele>
        <time>2019-08-02T10:21:03Z</time>
      </trkpt>
      <trkpt lat="47.85516" lon="0.30808">
        <ele>122</ele>
        <time>2019-08-02T10:21:11Z</time>
      </trkpt>
      <trkpt lat="47.85514" lon="0.30803">
        <ele>123</ele>
        <time>2019-08-02T10:21:13Z</time>
      </trkpt>
      <trkpt lat="47.85514" lon="0.30798">
        <ele>123</ele>
        <time>2019-08-02T10:21:15Z</time>
      </trkpt>
      <trkpt lat="47.85513" lon="0.30793">
        <ele>123</ele>
        <time>2019-08-02T10:21:17Z</time>
      </trkpt>
      <trkpt lat="47.85513" lon="0.30788">
        <ele>123</ele>
        <time>2019-08-02T10:21:19Z</time>
      </trkpt>
      <trkpt lat="47.85508" lon="0.30729">
        <ele>122</ele>
        <time>2019-08-02T10:21:50Z</time>
      </trkpt>
      <trkpt lat="47.85495" lon="0.30669">
        <ele>116</ele>
        <time>2019-08-02T10:22:12Z</time>
      </trkpt>
      <trkpt lat="47.85495" lon="0.30663">
        <ele>114</ele>
        <time>2019-08-02T10:22:14Z</time>
      </trkpt>
      <trkpt lat="47.85492" lon="0.30654">
        <ele>116</ele>
        <time>2019-08-02T10:22:23Z</time>
      </trkpt>
      <trkpt lat="47.8549" lon="0.30647">
        <ele>118</ele>
        <time>2019-08-02T10:22:29Z</time>
      </trkpt>
      <trkpt lat="47.8549" lon="0.30641">
        <ele>117</ele>
        <time>2019-08-02T10:22:32Z</time>
      </trkpt>
      <trkpt lat="47.85491" lon="0.30635">
        <ele>117</ele>
        <time>2019-08-02T10:22:35Z</time>
      </trkpt>
      <trkpt lat="47.8549" lon="0.30616">
        <ele>121</ele>
        <time>2019-08-02T10:22:41Z</time>
      </trkpt>
      <trkpt lat="47.8549" lon="0.30603">
        <ele>115</ele>
        <time>2019-08-02T10:22:45Z</time>
      </trkpt>
      <trkpt lat="47.8549" lon="0.30597">
        <ele>124</ele>
        <time>2019-08-02T10:22:48Z</time>
      </trkpt>
      <trkpt lat="47.85491" lon="0.30582">
        <ele>126</ele>
        <time>2019-08-02T10:22:55Z</time>
      </trkpt>
      <trkpt lat="47.85491" lon="0.30566">
        <ele>119</ele>
        <time>2019-08-02T10:23:03Z</time>
      </trkpt>
      <trkpt lat="47.85491" lon="0.30533">
        <ele>118</ele>
        <time>2019-08-02T10:23:21Z</time>
      </trkpt>
      <trkpt lat="47.85492" lon="0.30528">
        <ele>112</ele>
        <time>2019-08-02T10:23:23Z</time>
      </trkpt>
      <trkpt lat="47.8549" lon="0.30507">
        <ele>111</ele>
        <time>2019-08-02T10:23:33Z</time>
      </trkpt>
      <trkpt lat="47.85493" lon="0.30501">
        <ele>110</ele>
        <time>2019-08-02T10:23:36Z</time>
      </trkpt>
      <trkpt lat="47.85496" lon="0.30465">
        <ele>110</ele>
        <time>2019-08-02T10:23:54Z</time>
      </trkpt>
      <trkpt lat="47.85495" lon="0.3046">
        <ele>111</ele>
        <time>2019-08-02T10:23:57Z</time>
      </trkpt>
      <trkpt lat="47.85497" lon="0.30451">
        <ele>106</ele>
        <time>2019-08-02T10:24:02Z</time>
      </trkpt>
      <trkpt lat="47.85496" lon="0.30443">
        <ele>106</ele>
        <time>2019-08-02T10:24:09Z</time>
      </trkpt>
      <trkpt lat="47.85496" lon="0.30429">
        <ele>109</ele>
        <time>2019-08-02T10:24:19Z</time>
      </trkpt>
      <trkpt lat="47.85497" lon="0.30418">
        <ele>108</ele>
        <time>2019-08-02T10:24:25Z</time>
      </trkpt>
      <trkpt lat="47.85494" lon="0.30393">
        <ele>109</ele>
        <time>2019-08-02T10:24:35Z</time>
      </trkpt>
      <trkpt lat="47.85493" lon="0.30384">
        <ele>108</ele>
        <time>2019-08-02T10:24:39Z</time>
      </trkpt>
      <trkpt lat="47.85491" lon="0.30372">
        <ele>108</ele>
        <time>2019-08-02T10:24:45Z</time>
      </trkpt>
      <trkpt lat="47.85491" lon="0.30362">
        <ele>107</ele>
        <time>2019-08-02T10:24:50Z</time>
      </trkpt>
      <trkpt lat="47.85491" lon="0.30335">
        <ele>103</ele>
        <time>2019-08-02T10:25:02Z</time>
      </trkpt>
      <trkpt lat="47.85485" lon="0.30315">
        <ele>108</ele>
        <time>2019-08-02T10:25:12Z</time>
      </trkpt>
      <trkpt lat="47.85487" lon="0.30311">
        <ele>111</ele>
        <time>2019-08-02T10:25:16Z</time>
      </trkpt>
      <trkpt lat="47.85486" lon="0.30284">
        <ele>114</ele>
        <time>2019-08-02T10:25:29Z</time>
      </trkpt>
    </trkseg>
  </trk>
</gpx>